<?xml version="1.0" encoding="UTF-8" standalone="no" ?>
<gpx xmlns="http://www.topografix.com/GPX/1/1" xmlns:xsi="http://www.w3.org/2001/XMLSchema-instance" xsi:schemaLocation="http://www.topografix.com/GPX/1/1 http://www.topografix.com/GPX/1/1/gpx.xsd" version="1.1" creator="VisuGPX - https://www.visugpx.com">
  <metadata>
    <name>trace 5</name>
  </metadata>
  <trk>
    <name><![CDATA[trace 5_5]]></name>
    <extensions>
      <line xmlns="http://www.topografix.com/GPX/gpx_style/0/2">
        <color>0000FF</color>
        <width>4</width>
      </line>
    </extensions>
    <trkseg>
      <trkpt lat="48.64836" lon="-2.4488">
        <ele>84</ele>
        <time>2016-02-21T15:27:01.1Z</time>
      </trkpt>
      <trkpt lat="48.64838" lon="-2.44879">
        <ele>84</ele>
        <time>2016-02-21T15:27:03.1Z</time>
      </trkpt>
      <trkpt lat="48.64838" lon="-2.44875">
        <ele>84</ele>
        <time>2016-02-21T15:27:05.1Z</time>
      </trkpt>
      <trkpt lat="48.64838" lon="-2.44871">
        <ele>83</ele>
        <time>2016-02-21T15:27:08.1Z</time>
      </trkpt>
      <trkpt lat="48.64838" lon="-2.44869">
        <ele>83</ele>
        <time>2016-02-21T15:27:10.1Z</time>
      </trkpt>
      <trkpt lat="48.64837" lon="-2.44866">
        <ele>83</ele>
        <time>2016-02-21T15:27:13.1Z</time>
      </trkpt>
      <trkpt lat="48.64838" lon="-2.44863">
        <ele>83</ele>
        <time>2016-02-21T15:27:15.1Z</time>
      </trkpt>
      <trkpt lat="48.64839" lon="-2.44859">
        <ele>82</ele>
        <time>2016-02-21T15:27:17.1Z</time>
      </trkpt>
      <trkpt lat="48.6484" lon="-2.44854">
        <ele>82</ele>
        <time>2016-02-21T15:27:20.1Z</time>
      </trkpt>
      <trkpt lat="48.64842" lon="-2.4485">
        <ele>83</ele>
        <time>2016-02-21T15:27:23.1Z</time>
      </trkpt>
      <trkpt lat="48.64843" lon="-2.44848">
        <ele>83</ele>
        <time>2016-02-21T15:27:25.1Z</time>
      </trkpt>
      <trkpt lat="48.64845" lon="-2.44846">
        <ele>83</ele>
        <time>2016-02-21T15:27:27.1Z</time>
      </trkpt>
      <trkpt lat="48.64847" lon="-2.44846">
        <ele>83</ele>
        <time>2016-02-21T15:27:29.1Z</time>
      </trkpt>
      <trkpt lat="48.64847" lon="-2.44847">
        <ele>83</ele>
        <time>2016-02-21T15:27:31.1Z</time>
      </trkpt>
      <trkpt lat="48.64848" lon="-2.44847">
        <ele>83</ele>
        <time>2016-02-21T15:27:35.1Z</time>
      </trkpt>
      <trkpt lat="48.64851" lon="-2.44845">
        <ele>82</ele>
        <time>2016-02-21T15:27:38.1Z</time>
      </trkpt>
      <trkpt lat="48.64854" lon="-2.44843">
        <ele>82</ele>
        <time>2016-02-21T15:27:41.1Z</time>
      </trkpt>
      <trkpt lat="48.64857" lon="-2.44841">
        <ele>81</ele>
        <time>2016-02-21T15:27:43.1Z</time>
      </trkpt>
      <trkpt lat="48.64859" lon="-2.44839">
        <ele>81</ele>
        <time>2016-02-21T15:27:45.1Z</time>
      </trkpt>
      <trkpt lat="48.64862" lon="-2.44837">
        <ele>81</ele>
        <time>2016-02-21T15:27:47.1Z</time>
      </trkpt>
      <trkpt lat="48.64864" lon="-2.44836">
        <ele>81</ele>
        <time>2016-02-21T15:27:49.1Z</time>
      </trkpt>
      <trkpt lat="48.64867" lon="-2.44837">
        <ele>81</ele>
        <time>2016-02-21T15:27:52.1Z</time>
      </trkpt>
      <trkpt lat="48.64869" lon="-2.44834">
        <ele>82</ele>
        <time>2016-02-21T15:27:54.1Z</time>
      </trkpt>
      <trkpt lat="48.64871" lon="-2.44831">
        <ele>82</ele>
        <time>2016-02-21T15:27:56.1Z</time>
      </trkpt>
      <trkpt lat="48.64874" lon="-2.44827">
        <ele>82</ele>
        <time>2016-02-21T15:27:59.1Z</time>
      </trkpt>
      <trkpt lat="48.64876" lon="-2.44823">
        <ele>81</ele>
        <time>2016-02-21T15:28:02.1Z</time>
      </trkpt>
      <trkpt lat="48.64878" lon="-2.44819">
        <ele>81</ele>
        <time>2016-02-21T15:28:05.1Z</time>
      </trkpt>
      <trkpt lat="48.6488" lon="-2.44817">
        <ele>81</ele>
        <time>2016-02-21T15:28:07.1Z</time>
      </trkpt>
      <trkpt lat="48.6488" lon="-2.44815">
        <ele>81</ele>
        <time>2016-02-21T15:28:09.1Z</time>
      </trkpt>
      <trkpt lat="48.64882" lon="-2.44813">
        <ele>81</ele>
        <time>2016-02-21T15:28:11.1Z</time>
      </trkpt>
      <trkpt lat="48.64882" lon="-2.44812">
        <ele>81</ele>
        <time>2016-02-21T15:28:14.1Z</time>
      </trkpt>
      <trkpt lat="48.64883" lon="-2.44811">
        <ele>81</ele>
        <time>2016-02-21T15:28:17.1Z</time>
      </trkpt>
      <trkpt lat="48.64883" lon="-2.44809">
        <ele>81</ele>
        <time>2016-02-21T15:28:19.1Z</time>
      </trkpt>
      <trkpt lat="48.64884" lon="-2.44808">
        <ele>81</ele>
        <time>2016-02-21T15:28:21.1Z</time>
      </trkpt>
      <trkpt lat="48.64884" lon="-2.44808">
        <ele>81</ele>
        <time>2016-02-21T15:28:23.1Z</time>
      </trkpt>
      <trkpt lat="48.64885" lon="-2.44806">
        <ele>81</ele>
        <time>2016-02-21T15:28:25.1Z</time>
      </trkpt>
      <trkpt lat="48.64887" lon="-2.44803">
        <ele>81</ele>
        <time>2016-02-21T15:28:28.1Z</time>
      </trkpt>
      <trkpt lat="48.64888" lon="-2.44801">
        <ele>81</ele>
        <time>2016-02-21T15:28:30.1Z</time>
      </trkpt>
      <trkpt lat="48.64889" lon="-2.44797">
        <ele>81</ele>
        <time>2016-02-21T15:28:33.1Z</time>
      </trkpt>
      <trkpt lat="48.6489" lon="-2.44795">
        <ele>81</ele>
        <time>2016-02-21T15:28:35.1Z</time>
      </trkpt>
      <trkpt lat="48.6489" lon="-2.44794">
        <ele>81</ele>
        <time>2016-02-21T15:28:37.1Z</time>
      </trkpt>
      <trkpt lat="48.64892" lon="-2.44791">
        <ele>81</ele>
        <time>2016-02-21T15:28:40.1Z</time>
      </trkpt>
      <trkpt lat="48.64892" lon="-2.44789">
        <ele>81</ele>
        <time>2016-02-21T15:28:42.1Z</time>
      </trkpt>
      <trkpt lat="48.64894" lon="-2.44785">
        <ele>81</ele>
        <time>2016-02-21T15:28:45.1Z</time>
      </trkpt>
      <trkpt lat="48.64894" lon="-2.44784">
        <ele>81</ele>
        <time>2016-02-21T15:28:47.1Z</time>
      </trkpt>
      <trkpt lat="48.64896" lon="-2.44781">
        <ele>80</ele>
        <time>2016-02-21T15:28:50.1Z</time>
      </trkpt>
      <trkpt lat="48.64897" lon="-2.44778">
        <ele>80</ele>
        <time>2016-02-21T15:28:52.1Z</time>
      </trkpt>
      <trkpt lat="48.64898" lon="-2.44774">
        <ele>80</ele>
        <time>2016-02-21T15:28:55.1Z</time>
      </trkpt>
      <trkpt lat="48.649" lon="-2.44769">
        <ele>80</ele>
        <time>2016-02-21T15:28:58.1Z</time>
      </trkpt>
      <trkpt lat="48.64902" lon="-2.44764">
        <ele>80</ele>
        <time>2016-02-21T15:29:01.1Z</time>
      </trkpt>
      <trkpt lat="48.64903" lon="-2.44761">
        <ele>80</ele>
        <time>2016-02-21T15:29:03.1Z</time>
      </trkpt>
      <trkpt lat="48.64904" lon="-2.44756">
        <ele>79</ele>
        <time>2016-02-21T15:29:06.1Z</time>
      </trkpt>
      <trkpt lat="48.64905" lon="-2.44752">
        <ele>79</ele>
        <time>2016-02-21T15:29:08.1Z</time>
      </trkpt>
      <trkpt lat="48.64906" lon="-2.44749">
        <ele>79</ele>
        <time>2016-02-21T15:29:10.1Z</time>
      </trkpt>
      <trkpt lat="48.64907" lon="-2.44746">
        <ele>79</ele>
        <time>2016-02-21T15:29:12.1Z</time>
      </trkpt>
      <trkpt lat="48.64909" lon="-2.44742">
        <ele>79</ele>
        <time>2016-02-21T15:29:15.1Z</time>
      </trkpt>
      <trkpt lat="48.64911" lon="-2.44738">
        <ele>79</ele>
        <time>2016-02-21T15:29:18.1Z</time>
      </trkpt>
      <trkpt lat="48.64912" lon="-2.44735">
        <ele>79</ele>
        <time>2016-02-21T15:29:20.1Z</time>
      </trkpt>
      <trkpt lat="48.64914" lon="-2.4473">
        <ele>78</ele>
        <time>2016-02-21T15:29:23.1Z</time>
      </trkpt>
      <trkpt lat="48.64915" lon="-2.44726">
        <ele>78</ele>
        <time>2016-02-21T15:29:26.1Z</time>
      </trkpt>
      <trkpt lat="48.64916" lon="-2.44723">
        <ele>78</ele>
        <time>2016-02-21T15:29:28.1Z</time>
      </trkpt>
      <trkpt lat="48.64919" lon="-2.44721">
        <ele>78</ele>
        <time>2016-02-21T15:29:31.1Z</time>
      </trkpt>
      <trkpt lat="48.64921" lon="-2.44718">
        <ele>78</ele>
        <time>2016-02-21T15:29:34.1Z</time>
      </trkpt>
      <trkpt lat="48.64923" lon="-2.44718">
        <ele>77</ele>
        <time>2016-02-21T15:29:37.1Z</time>
      </trkpt>
      <trkpt lat="48.64926" lon="-2.44718">
        <ele>77</ele>
        <time>2016-02-21T15:29:40.1Z</time>
      </trkpt>
      <trkpt lat="48.64928" lon="-2.44719">
        <ele>76</ele>
        <time>2016-02-21T15:29:42.1Z</time>
      </trkpt>
      <trkpt lat="48.64928" lon="-2.4472">
        <ele>76</ele>
        <time>2016-02-21T15:29:45.1Z</time>
      </trkpt>
      <trkpt lat="48.64928" lon="-2.4472">
        <ele>76</ele>
        <time>2016-02-21T15:29:47.1Z</time>
      </trkpt>
      <trkpt lat="48.64929" lon="-2.4472">
        <ele>76</ele>
        <time>2016-02-21T15:29:50.1Z</time>
      </trkpt>
      <trkpt lat="48.64931" lon="-2.44721">
        <ele>76</ele>
        <time>2016-02-21T15:29:52.1Z</time>
      </trkpt>
      <trkpt lat="48.64933" lon="-2.44722">
        <ele>76</ele>
        <time>2016-02-21T15:29:54.1Z</time>
      </trkpt>
      <trkpt lat="48.64937" lon="-2.44725">
        <ele>75</ele>
        <time>2016-02-21T15:29:57.1Z</time>
      </trkpt>
      <trkpt lat="48.6494" lon="-2.44727">
        <ele>75</ele>
        <time>2016-02-21T15:30:00.1Z</time>
      </trkpt>
      <trkpt lat="48.64943" lon="-2.44729">
        <ele>75</ele>
        <time>2016-02-21T15:30:03.1Z</time>
      </trkpt>
      <trkpt lat="48.64945" lon="-2.44732">
        <ele>75</ele>
        <time>2016-02-21T15:30:06.1Z</time>
      </trkpt>
      <trkpt lat="48.64946" lon="-2.44732">
        <ele>74</ele>
        <time>2016-02-21T15:30:09.1Z</time>
      </trkpt>
      <trkpt lat="48.64947" lon="-2.44732">
        <ele>74</ele>
        <time>2016-02-21T15:30:12.1Z</time>
      </trkpt>
      <trkpt lat="48.64948" lon="-2.44733">
        <ele>74</ele>
        <time>2016-02-21T15:30:14.1Z</time>
      </trkpt>
      <trkpt lat="48.64948" lon="-2.44734">
        <ele>74</ele>
        <time>2016-02-21T15:30:17.1Z</time>
      </trkpt>
      <trkpt lat="48.64949" lon="-2.44733">
        <ele>74</ele>
        <time>2016-02-21T15:30:19.1Z</time>
      </trkpt>
      <trkpt lat="48.64951" lon="-2.44733">
        <ele>74</ele>
        <time>2016-02-21T15:30:21.1Z</time>
      </trkpt>
      <trkpt lat="48.64954" lon="-2.44731">
        <ele>74</ele>
        <time>2016-02-21T15:30:23.1Z</time>
      </trkpt>
      <trkpt lat="48.64957" lon="-2.44728">
        <ele>74</ele>
        <time>2016-02-21T15:30:26.1Z</time>
      </trkpt>
      <trkpt lat="48.64959" lon="-2.44725">
        <ele>73</ele>
        <time>2016-02-21T15:30:28.1Z</time>
      </trkpt>
      <trkpt lat="48.64961" lon="-2.4472">
        <ele>73</ele>
        <time>2016-02-21T15:30:31.1Z</time>
      </trkpt>
      <trkpt lat="48.64963" lon="-2.44717">
        <ele>73</ele>
        <time>2016-02-21T15:30:33.1Z</time>
      </trkpt>
      <trkpt lat="48.64965" lon="-2.44712">
        <ele>72</ele>
        <time>2016-02-21T15:30:36.1Z</time>
      </trkpt>
      <trkpt lat="48.64966" lon="-2.44708">
        <ele>73</ele>
        <time>2016-02-21T15:30:38.1Z</time>
      </trkpt>
      <trkpt lat="48.64968" lon="-2.44703">
        <ele>72</ele>
        <time>2016-02-21T15:30:41.1Z</time>
      </trkpt>
      <trkpt lat="48.6497" lon="-2.44699">
        <ele>73</ele>
        <time>2016-02-21T15:30:43.1Z</time>
      </trkpt>
      <trkpt lat="48.64972" lon="-2.44694">
        <ele>73</ele>
        <time>2016-02-21T15:30:46.1Z</time>
      </trkpt>
      <trkpt lat="48.64973" lon="-2.44691">
        <ele>73</ele>
        <time>2016-02-21T15:30:48.1Z</time>
      </trkpt>
      <trkpt lat="48.64975" lon="-2.44685">
        <ele>73</ele>
        <time>2016-02-21T15:30:51.1Z</time>
      </trkpt>
      <trkpt lat="48.64977" lon="-2.44682">
        <ele>72</ele>
        <time>2016-02-21T15:30:53.1Z</time>
      </trkpt>
      <trkpt lat="48.64979" lon="-2.44676">
        <ele>73</ele>
        <time>2016-02-21T15:30:56.1Z</time>
      </trkpt>
      <trkpt lat="48.6498" lon="-2.44673">
        <ele>73</ele>
        <time>2016-02-21T15:30:58.1Z</time>
      </trkpt>
      <trkpt lat="48.64981" lon="-2.44667">
        <ele>73</ele>
        <time>2016-02-21T15:31:01.1Z</time>
      </trkpt>
      <trkpt lat="48.64983" lon="-2.44664">
        <ele>72</ele>
        <time>2016-02-21T15:31:03.1Z</time>
      </trkpt>
      <trkpt lat="48.64984" lon="-2.44658">
        <ele>72</ele>
        <time>2016-02-21T15:31:06.1Z</time>
      </trkpt>
      <trkpt lat="48.64986" lon="-2.44653">
        <ele>72</ele>
        <time>2016-02-21T15:31:09.1Z</time>
      </trkpt>
      <trkpt lat="48.64987" lon="-2.44648">
        <ele>72</ele>
        <time>2016-02-21T15:31:12.1Z</time>
      </trkpt>
      <trkpt lat="48.64988" lon="-2.44644">
        <ele>72</ele>
        <time>2016-02-21T15:31:14.1Z</time>
      </trkpt>
      <trkpt lat="48.6499" lon="-2.44639">
        <ele>73</ele>
        <time>2016-02-21T15:31:17.1Z</time>
      </trkpt>
      <trkpt lat="48.64992" lon="-2.44635">
        <ele>73</ele>
        <time>2016-02-21T15:31:20.1Z</time>
      </trkpt>
      <trkpt lat="48.64994" lon="-2.4463">
        <ele>73</ele>
        <time>2016-02-21T15:31:23.1Z</time>
      </trkpt>
      <trkpt lat="48.64996" lon="-2.44623">
        <ele>73</ele>
        <time>2016-02-21T15:31:26.1Z</time>
      </trkpt>
      <trkpt lat="48.64998" lon="-2.44617">
        <ele>73</ele>
        <time>2016-02-21T15:31:29.1Z</time>
      </trkpt>
      <trkpt lat="48.65" lon="-2.44611">
        <ele>73</ele>
        <time>2016-02-21T15:31:32.1Z</time>
      </trkpt>
      <trkpt lat="48.65002" lon="-2.44606">
        <ele>73</ele>
        <time>2016-02-21T15:31:35.1Z</time>
      </trkpt>
      <trkpt lat="48.65004" lon="-2.44603">
        <ele>73</ele>
        <time>2016-02-21T15:31:37.1Z</time>
      </trkpt>
      <trkpt lat="48.65005" lon="-2.44598">
        <ele>73</ele>
        <time>2016-02-21T15:31:40.1Z</time>
      </trkpt>
      <trkpt lat="48.65007" lon="-2.44593">
        <ele>73</ele>
        <time>2016-02-21T15:31:43.1Z</time>
      </trkpt>
      <trkpt lat="48.6501" lon="-2.44588">
        <ele>73</ele>
        <time>2016-02-21T15:31:46.1Z</time>
      </trkpt>
      <trkpt lat="48.65013" lon="-2.44582">
        <ele>73</ele>
        <time>2016-02-21T15:31:49.1Z</time>
      </trkpt>
      <trkpt lat="48.65017" lon="-2.44577">
        <ele>73</ele>
        <time>2016-02-21T15:31:52.1Z</time>
      </trkpt>
      <trkpt lat="48.65022" lon="-2.44571">
        <ele>73</ele>
        <time>2016-02-21T15:31:55.1Z</time>
      </trkpt>
      <trkpt lat="48.65026" lon="-2.44566">
        <ele>73</ele>
        <time>2016-02-21T15:31:57.1Z</time>
      </trkpt>
      <trkpt lat="48.6503" lon="-2.44561">
        <ele>73</ele>
        <time>2016-02-21T15:31:59.1Z</time>
      </trkpt>
      <trkpt lat="48.65037" lon="-2.44553">
        <ele>73</ele>
        <time>2016-02-21T15:32:02.1Z</time>
      </trkpt>
      <trkpt lat="48.6504" lon="-2.44547">
        <ele>74</ele>
        <time>2016-02-21T15:32:04.1Z</time>
      </trkpt>
      <trkpt lat="48.65042" lon="-2.4454">
        <ele>73</ele>
        <time>2016-02-21T15:32:07.1Z</time>
      </trkpt>
      <trkpt lat="48.65044" lon="-2.44535">
        <ele>73</ele>
        <time>2016-02-21T15:32:09.1Z</time>
      </trkpt>
      <trkpt lat="48.65048" lon="-2.44526">
        <ele>73</ele>
        <time>2016-02-21T15:32:12.1Z</time>
      </trkpt>
      <trkpt lat="48.65049" lon="-2.44522">
        <ele>73</ele>
        <time>2016-02-21T15:32:14.1Z</time>
      </trkpt>
      <trkpt lat="48.65049" lon="-2.44518">
        <ele>73</ele>
        <time>2016-02-21T15:32:17.1Z</time>
      </trkpt>
      <trkpt lat="48.65048" lon="-2.44518">
        <ele>73</ele>
        <time>2016-02-21T15:32:19.1Z</time>
      </trkpt>
      <trkpt lat="48.65049" lon="-2.44515">
        <ele>73</ele>
        <time>2016-02-21T15:32:21.1Z</time>
      </trkpt>
      <trkpt lat="48.6505" lon="-2.44511">
        <ele>73</ele>
        <time>2016-02-21T15:32:24.1Z</time>
      </trkpt>
      <trkpt lat="48.65051" lon="-2.44508">
        <ele>73</ele>
        <time>2016-02-21T15:32:26.1Z</time>
      </trkpt>
      <trkpt lat="48.65052" lon="-2.44503">
        <ele>73</ele>
        <time>2016-02-21T15:32:29.1Z</time>
      </trkpt>
      <trkpt lat="48.65052" lon="-2.44498">
        <ele>73</ele>
        <time>2016-02-21T15:32:32.1Z</time>
      </trkpt>
      <trkpt lat="48.65051" lon="-2.44495">
        <ele>73</ele>
        <time>2016-02-21T15:32:34.1Z</time>
      </trkpt>
      <trkpt lat="48.6505" lon="-2.44492">
        <ele>73</ele>
        <time>2016-02-21T15:32:36.1Z</time>
      </trkpt>
      <trkpt lat="48.6505" lon="-2.44486">
        <ele>73</ele>
        <time>2016-02-21T15:32:39.1Z</time>
      </trkpt>
      <trkpt lat="48.6505" lon="-2.44483">
        <ele>73</ele>
        <time>2016-02-21T15:32:41.1Z</time>
      </trkpt>
      <trkpt lat="48.65051" lon="-2.44479">
        <ele>74</ele>
        <time>2016-02-21T15:32:43.1Z</time>
      </trkpt>
      <trkpt lat="48.65051" lon="-2.44476">
        <ele>74</ele>
        <time>2016-02-21T15:32:45.1Z</time>
      </trkpt>
      <trkpt lat="48.65051" lon="-2.44472">
        <ele>74</ele>
        <time>2016-02-21T15:32:48.1Z</time>
      </trkpt>
      <trkpt lat="48.6505" lon="-2.44468">
        <ele>74</ele>
        <time>2016-02-21T15:32:50.1Z</time>
      </trkpt>
      <trkpt lat="48.65051" lon="-2.44462">
        <ele>74</ele>
        <time>2016-02-21T15:32:53.1Z</time>
      </trkpt>
      <trkpt lat="48.65052" lon="-2.44457">
        <ele>74</ele>
        <time>2016-02-21T15:32:56.1Z</time>
      </trkpt>
      <trkpt lat="48.65052" lon="-2.44452">
        <ele>74</ele>
        <time>2016-02-21T15:32:59.1Z</time>
      </trkpt>
      <trkpt lat="48.65052" lon="-2.44447">
        <ele>74</ele>
        <time>2016-02-21T15:33:02.1Z</time>
      </trkpt>
      <trkpt lat="48.65053" lon="-2.44444">
        <ele>74</ele>
        <time>2016-02-21T15:33:04.1Z</time>
      </trkpt>
      <trkpt lat="48.65053" lon="-2.4444">
        <ele>74</ele>
        <time>2016-02-21T15:33:07.1Z</time>
      </trkpt>
      <trkpt lat="48.65054" lon="-2.44437">
        <ele>74</ele>
        <time>2016-02-21T15:33:09.1Z</time>
      </trkpt>
      <trkpt lat="48.65054" lon="-2.44433">
        <ele>74</ele>
        <time>2016-02-21T15:33:12.1Z</time>
      </trkpt>
      <trkpt lat="48.65054" lon="-2.44427">
        <ele>74</ele>
        <time>2016-02-21T15:33:15.1Z</time>
      </trkpt>
      <trkpt lat="48.65055" lon="-2.44423">
        <ele>74</ele>
        <time>2016-02-21T15:33:18.1Z</time>
      </trkpt>
      <trkpt lat="48.65056" lon="-2.4442">
        <ele>74</ele>
        <time>2016-02-21T15:33:20.1Z</time>
      </trkpt>
      <trkpt lat="48.65057" lon="-2.44415">
        <ele>74</ele>
        <time>2016-02-21T15:33:23.1Z</time>
      </trkpt>
      <trkpt lat="48.65058" lon="-2.4441">
        <ele>74</ele>
        <time>2016-02-21T15:33:26.1Z</time>
      </trkpt>
      <trkpt lat="48.6506" lon="-2.44406">
        <ele>74</ele>
        <time>2016-02-21T15:33:29.1Z</time>
      </trkpt>
      <trkpt lat="48.6506" lon="-2.44403">
        <ele>74</ele>
        <time>2016-02-21T15:33:31.1Z</time>
      </trkpt>
      <trkpt lat="48.65061" lon="-2.444">
        <ele>74</ele>
        <time>2016-02-21T15:33:33.1Z</time>
      </trkpt>
      <trkpt lat="48.65062" lon="-2.44396">
        <ele>74</ele>
        <time>2016-02-21T15:33:36.1Z</time>
      </trkpt>
      <trkpt lat="48.65063" lon="-2.44392">
        <ele>74</ele>
        <time>2016-02-21T15:33:38.1Z</time>
      </trkpt>
      <trkpt lat="48.65063" lon="-2.44389">
        <ele>74</ele>
        <time>2016-02-21T15:33:40.1Z</time>
      </trkpt>
      <trkpt lat="48.65064" lon="-2.44387">
        <ele>74</ele>
        <time>2016-02-21T15:33:42.1Z</time>
      </trkpt>
      <trkpt lat="48.65065" lon="-2.44382">
        <ele>74</ele>
        <time>2016-02-21T15:33:45.1Z</time>
      </trkpt>
      <trkpt lat="48.65065" lon="-2.44379">
        <ele>74</ele>
        <time>2016-02-21T15:33:47.1Z</time>
      </trkpt>
      <trkpt lat="48.65066" lon="-2.44376">
        <ele>74</ele>
        <time>2016-02-21T15:33:50.1Z</time>
      </trkpt>
      <trkpt lat="48.65067" lon="-2.44373">
        <ele>74</ele>
        <time>2016-02-21T15:33:52.1Z</time>
      </trkpt>
      <trkpt lat="48.65068" lon="-2.44369">
        <ele>74</ele>
        <time>2016-02-21T15:33:55.1Z</time>
      </trkpt>
      <trkpt lat="48.65069" lon="-2.44366">
        <ele>73</ele>
        <time>2016-02-21T15:33:57.1Z</time>
      </trkpt>
      <trkpt lat="48.65069" lon="-2.44363">
        <ele>73</ele>
        <time>2016-02-21T15:33:59.1Z</time>
      </trkpt>
      <trkpt lat="48.6507" lon="-2.44359">
        <ele>73</ele>
        <time>2016-02-21T15:34:02.1Z</time>
      </trkpt>
      <trkpt lat="48.65071" lon="-2.44355">
        <ele>73</ele>
        <time>2016-02-21T15:34:05.1Z</time>
      </trkpt>
      <trkpt lat="48.65071" lon="-2.44352">
        <ele>74</ele>
        <time>2016-02-21T15:34:07.1Z</time>
      </trkpt>
      <trkpt lat="48.65072" lon="-2.4435">
        <ele>73</ele>
        <time>2016-02-21T15:34:09.1Z</time>
      </trkpt>
      <trkpt lat="48.65073" lon="-2.44345">
        <ele>73</ele>
        <time>2016-02-21T15:34:12.1Z</time>
      </trkpt>
      <trkpt lat="48.65074" lon="-2.44342">
        <ele>73</ele>
        <time>2016-02-21T15:34:14.1Z</time>
      </trkpt>
      <trkpt lat="48.65075" lon="-2.44338">
        <ele>73</ele>
        <time>2016-02-21T15:34:17.1Z</time>
      </trkpt>
      <trkpt lat="48.65076" lon="-2.44334">
        <ele>73</ele>
        <time>2016-02-21T15:34:20.1Z</time>
      </trkpt>
      <trkpt lat="48.65077" lon="-2.44331">
        <ele>73</ele>
        <time>2016-02-21T15:34:22.1Z</time>
      </trkpt>
      <trkpt lat="48.65077" lon="-2.44328">
        <ele>73</ele>
        <time>2016-02-21T15:34:24.1Z</time>
      </trkpt>
      <trkpt lat="48.65078" lon="-2.44323">
        <ele>73</ele>
        <time>2016-02-21T15:34:27.1Z</time>
      </trkpt>
      <trkpt lat="48.65078" lon="-2.44321">
        <ele>74</ele>
        <time>2016-02-21T15:34:29.1Z</time>
      </trkpt>
      <trkpt lat="48.65079" lon="-2.44318">
        <ele>74</ele>
        <time>2016-02-21T15:34:31.1Z</time>
      </trkpt>
      <trkpt lat="48.6508" lon="-2.44314">
        <ele>74</ele>
        <time>2016-02-21T15:34:34.1Z</time>
      </trkpt>
      <trkpt lat="48.65081" lon="-2.44309">
        <ele>74</ele>
        <time>2016-02-21T15:34:37.1Z</time>
      </trkpt>
      <trkpt lat="48.65081" lon="-2.44307">
        <ele>74</ele>
        <time>2016-02-21T15:34:39.1Z</time>
      </trkpt>
      <trkpt lat="48.65081" lon="-2.44304">
        <ele>74</ele>
        <time>2016-02-21T15:34:41.1Z</time>
      </trkpt>
      <trkpt lat="48.65082" lon="-2.443">
        <ele>74</ele>
        <time>2016-02-21T15:34:44.1Z</time>
      </trkpt>
      <trkpt lat="48.65082" lon="-2.44297">
        <ele>74</ele>
        <time>2016-02-21T15:34:46.1Z</time>
      </trkpt>
      <trkpt lat="48.65083" lon="-2.44293">
        <ele>74</ele>
        <time>2016-02-21T15:34:49.1Z</time>
      </trkpt>
      <trkpt lat="48.65083" lon="-2.4429">
        <ele>74</ele>
        <time>2016-02-21T15:34:51.1Z</time>
      </trkpt>
      <trkpt lat="48.65084" lon="-2.44287">
        <ele>74</ele>
        <time>2016-02-21T15:34:53.1Z</time>
      </trkpt>
      <trkpt lat="48.65085" lon="-2.44285">
        <ele>74</ele>
        <time>2016-02-21T15:34:55.1Z</time>
      </trkpt>
      <trkpt lat="48.65086" lon="-2.4428">
        <ele>74</ele>
        <time>2016-02-21T15:34:58.1Z</time>
      </trkpt>
      <trkpt lat="48.65086" lon="-2.44277">
        <ele>74</ele>
        <time>2016-02-21T15:35:00.1Z</time>
      </trkpt>
      <trkpt lat="48.65087" lon="-2.44273">
        <ele>74</ele>
        <time>2016-02-21T15:35:03.1Z</time>
      </trkpt>
      <trkpt lat="48.65087" lon="-2.44271">
        <ele>74</ele>
        <time>2016-02-21T15:35:05.1Z</time>
      </trkpt>
      <trkpt lat="48.65088" lon="-2.44267">
        <ele>74</ele>
        <time>2016-02-21T15:35:08.1Z</time>
      </trkpt>
      <trkpt lat="48.65089" lon="-2.44264">
        <ele>74</ele>
        <time>2016-02-21T15:35:10.1Z</time>
      </trkpt>
      <trkpt lat="48.65091" lon="-2.4426">
        <ele>74</ele>
        <time>2016-02-21T15:35:13.1Z</time>
      </trkpt>
      <trkpt lat="48.65091" lon="-2.44257">
        <ele>74</ele>
        <time>2016-02-21T15:35:15.1Z</time>
      </trkpt>
      <trkpt lat="48.65092" lon="-2.44253">
        <ele>74</ele>
        <time>2016-02-21T15:35:18.1Z</time>
      </trkpt>
      <trkpt lat="48.65094" lon="-2.44249">
        <ele>74</ele>
        <time>2016-02-21T15:35:21.1Z</time>
      </trkpt>
      <trkpt lat="48.65095" lon="-2.44247">
        <ele>74</ele>
        <time>2016-02-21T15:35:23.1Z</time>
      </trkpt>
      <trkpt lat="48.65096" lon="-2.44243">
        <ele>74</ele>
        <time>2016-02-21T15:35:26.1Z</time>
      </trkpt>
      <trkpt lat="48.65097" lon="-2.44239">
        <ele>74</ele>
        <time>2016-02-21T15:35:29.1Z</time>
      </trkpt>
      <trkpt lat="48.65098" lon="-2.44237">
        <ele>73</ele>
        <time>2016-02-21T15:35:31.1Z</time>
      </trkpt>
      <trkpt lat="48.65099" lon="-2.44234">
        <ele>74</ele>
        <time>2016-02-21T15:35:34.1Z</time>
      </trkpt>
      <trkpt lat="48.65101" lon="-2.4423">
        <ele>74</ele>
        <time>2016-02-21T15:35:37.1Z</time>
      </trkpt>
      <trkpt lat="48.65102" lon="-2.44225">
        <ele>74</ele>
        <time>2016-02-21T15:35:40.1Z</time>
      </trkpt>
      <trkpt lat="48.65103" lon="-2.44221">
        <ele>74</ele>
        <time>2016-02-21T15:35:43.1Z</time>
      </trkpt>
      <trkpt lat="48.65105" lon="-2.44219">
        <ele>74</ele>
        <time>2016-02-21T15:35:45.1Z</time>
      </trkpt>
      <trkpt lat="48.65107" lon="-2.44217">
        <ele>74</ele>
        <time>2016-02-21T15:35:47.1Z</time>
      </trkpt>
      <trkpt lat="48.6511" lon="-2.44214">
        <ele>74</ele>
        <time>2016-02-21T15:35:50.1Z</time>
      </trkpt>
      <trkpt lat="48.65112" lon="-2.44212">
        <ele>74</ele>
        <time>2016-02-21T15:35:52.1Z</time>
      </trkpt>
      <trkpt lat="48.65114" lon="-2.44209">
        <ele>73</ele>
        <time>2016-02-21T15:35:55.1Z</time>
      </trkpt>
      <trkpt lat="48.65116" lon="-2.44207">
        <ele>73</ele>
        <time>2016-02-21T15:35:57.1Z</time>
      </trkpt>
      <trkpt lat="48.65119" lon="-2.44204">
        <ele>73</ele>
        <time>2016-02-21T15:36:00.1Z</time>
      </trkpt>
      <trkpt lat="48.65122" lon="-2.44201">
        <ele>73</ele>
        <time>2016-02-21T15:36:03.1Z</time>
      </trkpt>
      <trkpt lat="48.65124" lon="-2.44199">
        <ele>73</ele>
        <time>2016-02-21T15:36:05.1Z</time>
      </trkpt>
      <trkpt lat="48.65126" lon="-2.44197">
        <ele>73</ele>
        <time>2016-02-21T15:36:07.1Z</time>
      </trkpt>
      <trkpt lat="48.65128" lon="-2.44193">
        <ele>72</ele>
        <time>2016-02-21T15:36:10.1Z</time>
      </trkpt>
      <trkpt lat="48.65131" lon="-2.44189">
        <ele>72</ele>
        <time>2016-02-21T15:36:13.1Z</time>
      </trkpt>
      <trkpt lat="48.65133" lon="-2.44186">
        <ele>72</ele>
        <time>2016-02-21T15:36:16.1Z</time>
      </trkpt>
      <trkpt lat="48.65134" lon="-2.44183">
        <ele>72</ele>
        <time>2016-02-21T15:36:18.1Z</time>
      </trkpt>
      <trkpt lat="48.65136" lon="-2.44179">
        <ele>72</ele>
        <time>2016-02-21T15:36:21.1Z</time>
      </trkpt>
      <trkpt lat="48.65138" lon="-2.44175">
        <ele>72</ele>
        <time>2016-02-21T15:36:24.1Z</time>
      </trkpt>
      <trkpt lat="48.6514" lon="-2.44172">
        <ele>72</ele>
        <time>2016-02-21T15:36:26.1Z</time>
      </trkpt>
      <trkpt lat="48.65142" lon="-2.44167">
        <ele>72</ele>
        <time>2016-02-21T15:36:29.1Z</time>
      </trkpt>
      <trkpt lat="48.65143" lon="-2.44164">
        <ele>72</ele>
        <time>2016-02-21T15:36:31.1Z</time>
      </trkpt>
      <trkpt lat="48.65144" lon="-2.44162">
        <ele>72</ele>
        <time>2016-02-21T15:36:33.1Z</time>
      </trkpt>
      <trkpt lat="48.65145" lon="-2.44157">
        <ele>72</ele>
        <time>2016-02-21T15:36:36.1Z</time>
      </trkpt>
      <trkpt lat="48.65147" lon="-2.44152">
        <ele>72</ele>
        <time>2016-02-21T15:36:39.1Z</time>
      </trkpt>
      <trkpt lat="48.65147" lon="-2.44149">
        <ele>72</ele>
        <time>2016-02-21T15:36:41.1Z</time>
      </trkpt>
      <trkpt lat="48.6515" lon="-2.44148">
        <ele>72</ele>
        <time>2016-02-21T15:36:44.1Z</time>
      </trkpt>
      <trkpt lat="48.65152" lon="-2.44147">
        <ele>72</ele>
        <time>2016-02-21T15:36:46.1Z</time>
      </trkpt>
      <trkpt lat="48.65155" lon="-2.44147">
        <ele>72</ele>
        <time>2016-02-21T15:36:48.1Z</time>
      </trkpt>
      <trkpt lat="48.65158" lon="-2.44148">
        <ele>72</ele>
        <time>2016-02-21T15:36:51.1Z</time>
      </trkpt>
      <trkpt lat="48.6516" lon="-2.44149">
        <ele>72</ele>
        <time>2016-02-21T15:36:53.1Z</time>
      </trkpt>
      <trkpt lat="48.65163" lon="-2.44149">
        <ele>72</ele>
        <time>2016-02-21T15:36:56.1Z</time>
      </trkpt>
      <trkpt lat="48.65165" lon="-2.44149">
        <ele>72</ele>
        <time>2016-02-21T15:36:58.1Z</time>
      </trkpt>
      <trkpt lat="48.65168" lon="-2.44148">
        <ele>73</ele>
        <time>2016-02-21T15:37:01.1Z</time>
      </trkpt>
      <trkpt lat="48.65171" lon="-2.44147">
        <ele>73</ele>
        <time>2016-02-21T15:37:04.1Z</time>
      </trkpt>
      <trkpt lat="48.65175" lon="-2.44145">
        <ele>73</ele>
        <time>2016-02-21T15:37:07.1Z</time>
      </trkpt>
      <trkpt lat="48.65177" lon="-2.44145">
        <ele>74</ele>
        <time>2016-02-21T15:37:09.1Z</time>
      </trkpt>
      <trkpt lat="48.6518" lon="-2.44144">
        <ele>74</ele>
        <time>2016-02-21T15:37:12.1Z</time>
      </trkpt>
      <trkpt lat="48.65181" lon="-2.44141">
        <ele>75</ele>
        <time>2016-02-21T15:37:14.1Z</time>
      </trkpt>
      <trkpt lat="48.65182" lon="-2.44138">
        <ele>75</ele>
        <time>2016-02-21T15:37:17.1Z</time>
      </trkpt>
      <trkpt lat="48.65183" lon="-2.44133">
        <ele>75</ele>
        <time>2016-02-21T15:37:19.1Z</time>
      </trkpt>
      <trkpt lat="48.65183" lon="-2.44129">
        <ele>76</ele>
        <time>2016-02-21T15:37:22.1Z</time>
      </trkpt>
      <trkpt lat="48.65183" lon="-2.44129">
        <ele>76</ele>
        <time>2016-02-21T15:37:24.1Z</time>
      </trkpt>
      <trkpt lat="48.65182" lon="-2.44128">
        <ele>77</ele>
        <time>2016-02-21T15:37:27.1Z</time>
      </trkpt>
      <trkpt lat="48.65181" lon="-2.44127">
        <ele>77</ele>
        <time>2016-02-21T15:37:29.1Z</time>
      </trkpt>
      <trkpt lat="48.6518" lon="-2.44121">
        <ele>76</ele>
        <time>2016-02-21T15:37:32.1Z</time>
      </trkpt>
      <trkpt lat="48.65178" lon="-2.44117">
        <ele>76</ele>
        <time>2016-02-21T15:37:35.1Z</time>
      </trkpt>
      <trkpt lat="48.65176" lon="-2.44115">
        <ele>76</ele>
        <time>2016-02-21T15:37:37.1Z</time>
      </trkpt>
      <trkpt lat="48.65174" lon="-2.44111">
        <ele>76</ele>
        <time>2016-02-21T15:37:40.1Z</time>
      </trkpt>
      <trkpt lat="48.65173" lon="-2.44108">
        <ele>77</ele>
        <time>2016-02-21T15:37:42.1Z</time>
      </trkpt>
      <trkpt lat="48.65173" lon="-2.44104">
        <ele>76</ele>
        <time>2016-02-21T15:37:44.1Z</time>
      </trkpt>
      <trkpt lat="48.65171" lon="-2.44099">
        <ele>77</ele>
        <time>2016-02-21T15:37:47.1Z</time>
      </trkpt>
      <trkpt lat="48.6517" lon="-2.44096">
        <ele>77</ele>
        <time>2016-02-21T15:37:49.1Z</time>
      </trkpt>
      <trkpt lat="48.65169" lon="-2.44092">
        <ele>77</ele>
        <time>2016-02-21T15:37:52.1Z</time>
      </trkpt>
      <trkpt lat="48.65168" lon="-2.4409">
        <ele>77</ele>
        <time>2016-02-21T15:37:54.1Z</time>
      </trkpt>
      <trkpt lat="48.65169" lon="-2.44086">
        <ele>77</ele>
        <time>2016-02-21T15:37:57.1Z</time>
      </trkpt>
      <trkpt lat="48.65171" lon="-2.4408">
        <ele>77</ele>
        <time>2016-02-21T15:38:00.1Z</time>
      </trkpt>
      <trkpt lat="48.65171" lon="-2.44075">
        <ele>77</ele>
        <time>2016-02-21T15:38:03.1Z</time>
      </trkpt>
      <trkpt lat="48.65172" lon="-2.44072">
        <ele>77</ele>
        <time>2016-02-21T15:38:05.1Z</time>
      </trkpt>
      <trkpt lat="48.65173" lon="-2.44069">
        <ele>77</ele>
        <time>2016-02-21T15:38:07.1Z</time>
      </trkpt>
      <trkpt lat="48.65174" lon="-2.44065">
        <ele>78</ele>
        <time>2016-02-21T15:38:10.1Z</time>
      </trkpt>
      <trkpt lat="48.65176" lon="-2.44061">
        <ele>78</ele>
        <time>2016-02-21T15:38:12.1Z</time>
      </trkpt>
      <trkpt lat="48.65176" lon="-2.44058">
        <ele>78</ele>
        <time>2016-02-21T15:38:14.1Z</time>
      </trkpt>
      <trkpt lat="48.65178" lon="-2.44054">
        <ele>78</ele>
        <time>2016-02-21T15:38:17.1Z</time>
      </trkpt>
      <trkpt lat="48.65179" lon="-2.44049">
        <ele>78</ele>
        <time>2016-02-21T15:38:20.1Z</time>
      </trkpt>
      <trkpt lat="48.6518" lon="-2.44047">
        <ele>79</ele>
        <time>2016-02-21T15:38:22.1Z</time>
      </trkpt>
      <trkpt lat="48.65181" lon="-2.44043">
        <ele>78</ele>
        <time>2016-02-21T15:38:24.1Z</time>
      </trkpt>
      <trkpt lat="48.65182" lon="-2.44039">
        <ele>78</ele>
        <time>2016-02-21T15:38:27.1Z</time>
      </trkpt>
      <trkpt lat="48.65184" lon="-2.44034">
        <ele>78</ele>
        <time>2016-02-21T15:38:30.1Z</time>
      </trkpt>
      <trkpt lat="48.65185" lon="-2.44029">
        <ele>78</ele>
        <time>2016-02-21T15:38:33.1Z</time>
      </trkpt>
      <trkpt lat="48.65187" lon="-2.44025">
        <ele>78</ele>
        <time>2016-02-21T15:38:36.1Z</time>
      </trkpt>
      <trkpt lat="48.65189" lon="-2.44022">
        <ele>78</ele>
        <time>2016-02-21T15:38:38.1Z</time>
      </trkpt>
      <trkpt lat="48.6519" lon="-2.44017">
        <ele>78</ele>
        <time>2016-02-21T15:38:41.1Z</time>
      </trkpt>
      <trkpt lat="48.65192" lon="-2.44012">
        <ele>78</ele>
        <time>2016-02-21T15:38:44.1Z</time>
      </trkpt>
      <trkpt lat="48.65194" lon="-2.44007">
        <ele>78</ele>
        <time>2016-02-21T15:38:47.1Z</time>
      </trkpt>
      <trkpt lat="48.65195" lon="-2.44004">
        <ele>78</ele>
        <time>2016-02-21T15:38:49.1Z</time>
      </trkpt>
      <trkpt lat="48.65197" lon="-2.43999">
        <ele>78</ele>
        <time>2016-02-21T15:38:52.1Z</time>
      </trkpt>
      <trkpt lat="48.65199" lon="-2.43995">
        <ele>78</ele>
        <time>2016-02-21T15:38:55.1Z</time>
      </trkpt>
      <trkpt lat="48.652" lon="-2.4399">
        <ele>78</ele>
        <time>2016-02-21T15:38:58.1Z</time>
      </trkpt>
      <trkpt lat="48.65202" lon="-2.43987">
        <ele>78</ele>
        <time>2016-02-21T15:39:00.1Z</time>
      </trkpt>
      <trkpt lat="48.65203" lon="-2.43984">
        <ele>78</ele>
        <time>2016-02-21T15:39:02.1Z</time>
      </trkpt>
      <trkpt lat="48.65205" lon="-2.43981">
        <ele>78</ele>
        <time>2016-02-21T15:39:04.1Z</time>
      </trkpt>
      <trkpt lat="48.65206" lon="-2.43976">
        <ele>78</ele>
        <time>2016-02-21T15:39:07.1Z</time>
      </trkpt>
      <trkpt lat="48.65208" lon="-2.43972">
        <ele>78</ele>
        <time>2016-02-21T15:39:10.1Z</time>
      </trkpt>
      <trkpt lat="48.6521" lon="-2.43967">
        <ele>78</ele>
        <time>2016-02-21T15:39:13.1Z</time>
      </trkpt>
      <trkpt lat="48.65212" lon="-2.43962">
        <ele>78</ele>
        <time>2016-02-21T15:39:16.1Z</time>
      </trkpt>
      <trkpt lat="48.65214" lon="-2.43958">
        <ele>78</ele>
        <time>2016-02-21T15:39:19.1Z</time>
      </trkpt>
      <trkpt lat="48.65216" lon="-2.43953">
        <ele>78</ele>
        <time>2016-02-21T15:39:22.1Z</time>
      </trkpt>
      <trkpt lat="48.65217" lon="-2.43949">
        <ele>78</ele>
        <time>2016-02-21T15:39:24.1Z</time>
      </trkpt>
      <trkpt lat="48.65218" lon="-2.43946">
        <ele>77</ele>
        <time>2016-02-21T15:39:26.1Z</time>
      </trkpt>
      <trkpt lat="48.65219" lon="-2.43942">
        <ele>77</ele>
        <time>2016-02-21T15:39:29.1Z</time>
      </trkpt>
      <trkpt lat="48.65221" lon="-2.43939">
        <ele>77</ele>
        <time>2016-02-21T15:39:31.1Z</time>
      </trkpt>
      <trkpt lat="48.6522" lon="-2.43934">
        <ele>78</ele>
        <time>2016-02-21T15:39:34.1Z</time>
      </trkpt>
      <trkpt lat="48.65221" lon="-2.43929">
        <ele>78</ele>
        <time>2016-02-21T15:39:37.1Z</time>
      </trkpt>
      <trkpt lat="48.65222" lon="-2.43923">
        <ele>78</ele>
        <time>2016-02-21T15:39:40.1Z</time>
      </trkpt>
      <trkpt lat="48.65223" lon="-2.43919">
        <ele>78</ele>
        <time>2016-02-21T15:39:42.1Z</time>
      </trkpt>
      <trkpt lat="48.65223" lon="-2.43916">
        <ele>78</ele>
        <time>2016-02-21T15:39:44.1Z</time>
      </trkpt>
      <trkpt lat="48.65224" lon="-2.43913">
        <ele>78</ele>
        <time>2016-02-21T15:39:47.1Z</time>
      </trkpt>
      <trkpt lat="48.65225" lon="-2.43909">
        <ele>78</ele>
        <time>2016-02-21T15:39:49.1Z</time>
      </trkpt>
      <trkpt lat="48.65226" lon="-2.43904">
        <ele>78</ele>
        <time>2016-02-21T15:39:52.1Z</time>
      </trkpt>
      <trkpt lat="48.65228" lon="-2.43901">
        <ele>78</ele>
        <time>2016-02-21T15:39:54.1Z</time>
      </trkpt>
      <trkpt lat="48.65229" lon="-2.43898">
        <ele>78</ele>
        <time>2016-02-21T15:39:56.1Z</time>
      </trkpt>
      <trkpt lat="48.6523" lon="-2.43893">
        <ele>78</ele>
        <time>2016-02-21T15:39:59.1Z</time>
      </trkpt>
      <trkpt lat="48.6523" lon="-2.43891">
        <ele>78</ele>
        <time>2016-02-21T15:40:01.1Z</time>
      </trkpt>
      <trkpt lat="48.65231" lon="-2.43888">
        <ele>78</ele>
        <time>2016-02-21T15:40:04.1Z</time>
      </trkpt>
      <trkpt lat="48.65233" lon="-2.43884">
        <ele>78</ele>
        <time>2016-02-21T15:40:07.1Z</time>
      </trkpt>
      <trkpt lat="48.65234" lon="-2.43883">
        <ele>78</ele>
        <time>2016-02-21T15:40:09.1Z</time>
      </trkpt>
      <trkpt lat="48.65237" lon="-2.43882">
        <ele>78</ele>
        <time>2016-02-21T15:40:11.1Z</time>
      </trkpt>
      <trkpt lat="48.65239" lon="-2.43878">
        <ele>78</ele>
        <time>2016-02-21T15:40:14.1Z</time>
      </trkpt>
      <trkpt lat="48.6524" lon="-2.43874">
        <ele>78</ele>
        <time>2016-02-21T15:40:16.1Z</time>
      </trkpt>
      <trkpt lat="48.65242" lon="-2.4387">
        <ele>78</ele>
        <time>2016-02-21T15:40:19.1Z</time>
      </trkpt>
      <trkpt lat="48.65245" lon="-2.43866">
        <ele>78</ele>
        <time>2016-02-21T15:40:22.1Z</time>
      </trkpt>
      <trkpt lat="48.65246" lon="-2.43863">
        <ele>77</ele>
        <time>2016-02-21T15:40:24.1Z</time>
      </trkpt>
      <trkpt lat="48.65247" lon="-2.4386">
        <ele>77</ele>
        <time>2016-02-21T15:40:26.1Z</time>
      </trkpt>
      <trkpt lat="48.65248" lon="-2.43856">
        <ele>77</ele>
        <time>2016-02-21T15:40:29.1Z</time>
      </trkpt>
      <trkpt lat="48.65248" lon="-2.43854">
        <ele>77</ele>
        <time>2016-02-21T15:40:31.1Z</time>
      </trkpt>
      <trkpt lat="48.65249" lon="-2.43852">
        <ele>77</ele>
        <time>2016-02-21T15:40:34.1Z</time>
      </trkpt>
      <trkpt lat="48.65249" lon="-2.43849">
        <ele>77</ele>
        <time>2016-02-21T15:40:36.1Z</time>
      </trkpt>
      <trkpt lat="48.65247" lon="-2.43846">
        <ele>77</ele>
        <time>2016-02-21T15:40:38.1Z</time>
      </trkpt>
      <trkpt lat="48.65245" lon="-2.43841">
        <ele>77</ele>
        <time>2016-02-21T15:40:41.1Z</time>
      </trkpt>
      <trkpt lat="48.65245" lon="-2.43838">
        <ele>77</ele>
        <time>2016-02-21T15:40:43.1Z</time>
      </trkpt>
      <trkpt lat="48.65245" lon="-2.43832">
        <ele>77</ele>
        <time>2016-02-21T15:40:46.1Z</time>
      </trkpt>
      <trkpt lat="48.65246" lon="-2.43827">
        <ele>77</ele>
        <time>2016-02-21T15:40:49.1Z</time>
      </trkpt>
      <trkpt lat="48.65247" lon="-2.43822">
        <ele>77</ele>
        <time>2016-02-21T15:40:52.1Z</time>
      </trkpt>
      <trkpt lat="48.65248" lon="-2.43819">
        <ele>77</ele>
        <time>2016-02-21T15:40:54.1Z</time>
      </trkpt>
      <trkpt lat="48.6525" lon="-2.43814">
        <ele>77</ele>
        <time>2016-02-21T15:40:57.1Z</time>
      </trkpt>
      <trkpt lat="48.6525" lon="-2.43811">
        <ele>77</ele>
        <time>2016-02-21T15:40:59.1Z</time>
      </trkpt>
      <trkpt lat="48.65252" lon="-2.43806">
        <ele>77</ele>
        <time>2016-02-21T15:41:02.1Z</time>
      </trkpt>
      <trkpt lat="48.65252" lon="-2.43802">
        <ele>77</ele>
        <time>2016-02-21T15:41:04.1Z</time>
      </trkpt>
      <trkpt lat="48.65252" lon="-2.43797">
        <ele>76</ele>
        <time>2016-02-21T15:41:07.1Z</time>
      </trkpt>
      <trkpt lat="48.65252" lon="-2.43793">
        <ele>76</ele>
        <time>2016-02-21T15:41:09.1Z</time>
      </trkpt>
      <trkpt lat="48.65252" lon="-2.43788">
        <ele>76</ele>
        <time>2016-02-21T15:41:12.1Z</time>
      </trkpt>
      <trkpt lat="48.65252" lon="-2.43782">
        <ele>76</ele>
        <time>2016-02-21T15:41:15.1Z</time>
      </trkpt>
      <trkpt lat="48.65252" lon="-2.43777">
        <ele>77</ele>
        <time>2016-02-21T15:41:18.1Z</time>
      </trkpt>
      <trkpt lat="48.65251" lon="-2.43772">
        <ele>76</ele>
        <time>2016-02-21T15:41:21.1Z</time>
      </trkpt>
      <trkpt lat="48.65251" lon="-2.43768">
        <ele>76</ele>
        <time>2016-02-21T15:41:23.1Z</time>
      </trkpt>
      <trkpt lat="48.6525" lon="-2.43762">
        <ele>76</ele>
        <time>2016-02-21T15:41:26.1Z</time>
      </trkpt>
      <trkpt lat="48.65249" lon="-2.43757">
        <ele>76</ele>
        <time>2016-02-21T15:41:29.1Z</time>
      </trkpt>
      <trkpt lat="48.65249" lon="-2.43753">
        <ele>76</ele>
        <time>2016-02-21T15:41:31.1Z</time>
      </trkpt>
      <trkpt lat="48.65248" lon="-2.4375">
        <ele>76</ele>
        <time>2016-02-21T15:41:33.1Z</time>
      </trkpt>
      <trkpt lat="48.65248" lon="-2.43744">
        <ele>76</ele>
        <time>2016-02-21T15:41:36.1Z</time>
      </trkpt>
      <trkpt lat="48.65247" lon="-2.43741">
        <ele>76</ele>
        <time>2016-02-21T15:41:38.1Z</time>
      </trkpt>
      <trkpt lat="48.65247" lon="-2.43737">
        <ele>76</ele>
        <time>2016-02-21T15:41:40.1Z</time>
      </trkpt>
      <trkpt lat="48.65246" lon="-2.43734">
        <ele>76</ele>
        <time>2016-02-21T15:41:42.1Z</time>
      </trkpt>
      <trkpt lat="48.65245" lon="-2.4373">
        <ele>76</ele>
        <time>2016-02-21T15:41:44.1Z</time>
      </trkpt>
      <trkpt lat="48.65243" lon="-2.43726">
        <ele>76</ele>
        <time>2016-02-21T15:41:47.1Z</time>
      </trkpt>
      <trkpt lat="48.65242" lon="-2.43723">
        <ele>76</ele>
        <time>2016-02-21T15:41:49.1Z</time>
      </trkpt>
      <trkpt lat="48.65242" lon="-2.4372">
        <ele>76</ele>
        <time>2016-02-21T15:41:51.1Z</time>
      </trkpt>
      <trkpt lat="48.6524" lon="-2.43714">
        <ele>76</ele>
        <time>2016-02-21T15:41:54.1Z</time>
      </trkpt>
      <trkpt lat="48.6524" lon="-2.43711">
        <ele>77</ele>
        <time>2016-02-21T15:41:56.1Z</time>
      </trkpt>
      <trkpt lat="48.65239" lon="-2.43706">
        <ele>77</ele>
        <time>2016-02-21T15:41:59.1Z</time>
      </trkpt>
      <trkpt lat="48.65238" lon="-2.43703">
        <ele>76</ele>
        <time>2016-02-21T15:42:01.1Z</time>
      </trkpt>
      <trkpt lat="48.65237" lon="-2.437">
        <ele>76</ele>
        <time>2016-02-21T15:42:03.1Z</time>
      </trkpt>
      <trkpt lat="48.65236" lon="-2.43696">
        <ele>76</ele>
        <time>2016-02-21T15:42:05.1Z</time>
      </trkpt>
      <trkpt lat="48.65235" lon="-2.43693">
        <ele>77</ele>
        <time>2016-02-21T15:42:07.1Z</time>
      </trkpt>
      <trkpt lat="48.65234" lon="-2.4369">
        <ele>77</ele>
        <time>2016-02-21T15:42:09.1Z</time>
      </trkpt>
      <trkpt lat="48.65233" lon="-2.43687">
        <ele>77</ele>
        <time>2016-02-21T15:42:11.1Z</time>
      </trkpt>
      <trkpt lat="48.65231" lon="-2.43682">
        <ele>77</ele>
        <time>2016-02-21T15:42:14.1Z</time>
      </trkpt>
      <trkpt lat="48.6523" lon="-2.43679">
        <ele>77</ele>
        <time>2016-02-21T15:42:16.1Z</time>
      </trkpt>
      <trkpt lat="48.65229" lon="-2.43676">
        <ele>77</ele>
        <time>2016-02-21T15:42:18.1Z</time>
      </trkpt>
      <trkpt lat="48.65227" lon="-2.43672">
        <ele>76</ele>
        <time>2016-02-21T15:42:21.1Z</time>
      </trkpt>
      <trkpt lat="48.65226" lon="-2.43669">
        <ele>77</ele>
        <time>2016-02-21T15:42:23.1Z</time>
      </trkpt>
      <trkpt lat="48.65224" lon="-2.43666">
        <ele>77</ele>
        <time>2016-02-21T15:42:25.1Z</time>
      </trkpt>
      <trkpt lat="48.65223" lon="-2.43662">
        <ele>77</ele>
        <time>2016-02-21T15:42:28.1Z</time>
      </trkpt>
      <trkpt lat="48.65221" lon="-2.43658">
        <ele>77</ele>
        <time>2016-02-21T15:42:30.1Z</time>
      </trkpt>
      <trkpt lat="48.65219" lon="-2.43655">
        <ele>77</ele>
        <time>2016-02-21T15:42:32.1Z</time>
      </trkpt>
      <trkpt lat="48.65218" lon="-2.43652">
        <ele>77</ele>
        <time>2016-02-21T15:42:35.1Z</time>
      </trkpt>
      <trkpt lat="48.65216" lon="-2.43649">
        <ele>77</ele>
        <time>2016-02-21T15:42:37.1Z</time>
      </trkpt>
      <trkpt lat="48.65215" lon="-2.43645">
        <ele>77</ele>
        <time>2016-02-21T15:42:39.1Z</time>
      </trkpt>
      <trkpt lat="48.65212" lon="-2.43641">
        <ele>77</ele>
        <time>2016-02-21T15:42:42.1Z</time>
      </trkpt>
      <trkpt lat="48.6521" lon="-2.43638">
        <ele>77</ele>
        <time>2016-02-21T15:42:44.1Z</time>
      </trkpt>
      <trkpt lat="48.65209" lon="-2.43636">
        <ele>77</ele>
        <time>2016-02-21T15:42:46.1Z</time>
      </trkpt>
      <trkpt lat="48.65207" lon="-2.43632">
        <ele>77</ele>
        <time>2016-02-21T15:42:49.1Z</time>
      </trkpt>
      <trkpt lat="48.65205" lon="-2.43629">
        <ele>77</ele>
        <time>2016-02-21T15:42:51.1Z</time>
      </trkpt>
      <trkpt lat="48.65203" lon="-2.43626">
        <ele>77</ele>
        <time>2016-02-21T15:42:53.1Z</time>
      </trkpt>
      <trkpt lat="48.65201" lon="-2.43622">
        <ele>77</ele>
        <time>2016-02-21T15:42:56.1Z</time>
      </trkpt>
      <trkpt lat="48.65199" lon="-2.43619">
        <ele>77</ele>
        <time>2016-02-21T15:42:58.1Z</time>
      </trkpt>
      <trkpt lat="48.65197" lon="-2.43617">
        <ele>77</ele>
        <time>2016-02-21T15:43:00.1Z</time>
      </trkpt>
      <trkpt lat="48.65195" lon="-2.43615">
        <ele>77</ele>
        <time>2016-02-21T15:43:02.1Z</time>
      </trkpt>
      <trkpt lat="48.65194" lon="-2.43612">
        <ele>77</ele>
        <time>2016-02-21T15:43:04.1Z</time>
      </trkpt>
      <trkpt lat="48.65192" lon="-2.43609">
        <ele>77</ele>
        <time>2016-02-21T15:43:06.1Z</time>
      </trkpt>
      <trkpt lat="48.65191" lon="-2.43606">
        <ele>77</ele>
        <time>2016-02-21T15:43:08.1Z</time>
      </trkpt>
      <trkpt lat="48.65189" lon="-2.43602">
        <ele>78</ele>
        <time>2016-02-21T15:43:11.1Z</time>
      </trkpt>
      <trkpt lat="48.65187" lon="-2.43599">
        <ele>77</ele>
        <time>2016-02-21T15:43:13.1Z</time>
      </trkpt>
      <trkpt lat="48.65185" lon="-2.43597">
        <ele>77</ele>
        <time>2016-02-21T15:43:15.1Z</time>
      </trkpt>
      <trkpt lat="48.65183" lon="-2.43593">
        <ele>78</ele>
        <time>2016-02-21T15:43:18.1Z</time>
      </trkpt>
      <trkpt lat="48.65181" lon="-2.4359">
        <ele>78</ele>
        <time>2016-02-21T15:43:20.1Z</time>
      </trkpt>
      <trkpt lat="48.6518" lon="-2.43588">
        <ele>78</ele>
        <time>2016-02-21T15:43:22.1Z</time>
      </trkpt>
      <trkpt lat="48.65177" lon="-2.43584">
        <ele>78</ele>
        <time>2016-02-21T15:43:25.1Z</time>
      </trkpt>
      <trkpt lat="48.65176" lon="-2.43582">
        <ele>78</ele>
        <time>2016-02-21T15:43:27.1Z</time>
      </trkpt>
      <trkpt lat="48.65174" lon="-2.43579">
        <ele>78</ele>
        <time>2016-02-21T15:43:29.1Z</time>
      </trkpt>
      <trkpt lat="48.65171" lon="-2.43576">
        <ele>78</ele>
        <time>2016-02-21T15:43:32.1Z</time>
      </trkpt>
      <trkpt lat="48.6517" lon="-2.43573">
        <ele>78</ele>
        <time>2016-02-21T15:43:34.1Z</time>
      </trkpt>
      <trkpt lat="48.65168" lon="-2.4357">
        <ele>77</ele>
        <time>2016-02-21T15:43:36.1Z</time>
      </trkpt>
      <trkpt lat="48.65166" lon="-2.43566">
        <ele>78</ele>
        <time>2016-02-21T15:43:39.1Z</time>
      </trkpt>
      <trkpt lat="48.65164" lon="-2.43564">
        <ele>77</ele>
        <time>2016-02-21T15:43:41.1Z</time>
      </trkpt>
      <trkpt lat="48.65162" lon="-2.43561">
        <ele>77</ele>
        <time>2016-02-21T15:43:43.1Z</time>
      </trkpt>
      <trkpt lat="48.65159" lon="-2.43557">
        <ele>77</ele>
        <time>2016-02-21T15:43:46.1Z</time>
      </trkpt>
      <trkpt lat="48.65157" lon="-2.43555">
        <ele>78</ele>
        <time>2016-02-21T15:43:48.1Z</time>
      </trkpt>
      <trkpt lat="48.65156" lon="-2.43552">
        <ele>78</ele>
        <time>2016-02-21T15:43:50.1Z</time>
      </trkpt>
      <trkpt lat="48.65153" lon="-2.43548">
        <ele>78</ele>
        <time>2016-02-21T15:43:53.1Z</time>
      </trkpt>
      <trkpt lat="48.65151" lon="-2.43546">
        <ele>78</ele>
        <time>2016-02-21T15:43:55.1Z</time>
      </trkpt>
      <trkpt lat="48.6515" lon="-2.43544">
        <ele>78</ele>
        <time>2016-02-21T15:43:57.1Z</time>
      </trkpt>
      <trkpt lat="48.65148" lon="-2.43541">
        <ele>77</ele>
        <time>2016-02-21T15:43:59.1Z</time>
      </trkpt>
      <trkpt lat="48.65146" lon="-2.43539">
        <ele>77</ele>
        <time>2016-02-21T15:44:01.1Z</time>
      </trkpt>
      <trkpt lat="48.65145" lon="-2.43536">
        <ele>77</ele>
        <time>2016-02-21T15:44:03.1Z</time>
      </trkpt>
      <trkpt lat="48.65142" lon="-2.43533">
        <ele>77</ele>
        <time>2016-02-21T15:44:06.1Z</time>
      </trkpt>
      <trkpt lat="48.6514" lon="-2.4353">
        <ele>78</ele>
        <time>2016-02-21T15:44:08.1Z</time>
      </trkpt>
      <trkpt lat="48.65139" lon="-2.43528">
        <ele>77</ele>
        <time>2016-02-21T15:44:10.1Z</time>
      </trkpt>
      <trkpt lat="48.65136" lon="-2.43525">
        <ele>78</ele>
        <time>2016-02-21T15:44:13.1Z</time>
      </trkpt>
      <trkpt lat="48.65134" lon="-2.43522">
        <ele>78</ele>
        <time>2016-02-21T15:44:15.1Z</time>
      </trkpt>
      <trkpt lat="48.65132" lon="-2.4352">
        <ele>78</ele>
        <time>2016-02-21T15:44:17.1Z</time>
      </trkpt>
      <trkpt lat="48.65129" lon="-2.43517">
        <ele>78</ele>
        <time>2016-02-21T15:44:20.1Z</time>
      </trkpt>
      <trkpt lat="48.65128" lon="-2.43515">
        <ele>78</ele>
        <time>2016-02-21T15:44:22.1Z</time>
      </trkpt>
      <trkpt lat="48.65126" lon="-2.43512">
        <ele>78</ele>
        <time>2016-02-21T15:44:24.1Z</time>
      </trkpt>
      <trkpt lat="48.65124" lon="-2.43509">
        <ele>79</ele>
        <time>2016-02-21T15:44:27.1Z</time>
      </trkpt>
      <trkpt lat="48.65122" lon="-2.43507">
        <ele>78</ele>
        <time>2016-02-21T15:44:29.1Z</time>
      </trkpt>
      <trkpt lat="48.6512" lon="-2.43503">
        <ele>78</ele>
        <time>2016-02-21T15:44:32.1Z</time>
      </trkpt>
      <trkpt lat="48.65118" lon="-2.43501">
        <ele>79</ele>
        <time>2016-02-21T15:44:34.1Z</time>
      </trkpt>
      <trkpt lat="48.65115" lon="-2.435">
        <ele>79</ele>
        <time>2016-02-21T15:44:36.1Z</time>
      </trkpt>
      <trkpt lat="48.65113" lon="-2.43498">
        <ele>79</ele>
        <time>2016-02-21T15:44:39.1Z</time>
      </trkpt>
      <trkpt lat="48.6511" lon="-2.43497">
        <ele>80</ele>
        <time>2016-02-21T15:44:41.1Z</time>
      </trkpt>
      <trkpt lat="48.65109" lon="-2.43497">
        <ele>80</ele>
        <time>2016-02-21T15:44:43.1Z</time>
      </trkpt>
      <trkpt lat="48.65106" lon="-2.43495">
        <ele>80</ele>
        <time>2016-02-21T15:44:46.1Z</time>
      </trkpt>
      <trkpt lat="48.65104" lon="-2.43494">
        <ele>80</ele>
        <time>2016-02-21T15:44:48.1Z</time>
      </trkpt>
      <trkpt lat="48.65102" lon="-2.43492">
        <ele>80</ele>
        <time>2016-02-21T15:44:50.1Z</time>
      </trkpt>
      <trkpt lat="48.651" lon="-2.43491">
        <ele>80</ele>
        <time>2016-02-21T15:44:52.1Z</time>
      </trkpt>
      <trkpt lat="48.65098" lon="-2.4349">
        <ele>80</ele>
        <time>2016-02-21T15:44:54.1Z</time>
      </trkpt>
      <trkpt lat="48.65096" lon="-2.43488">
        <ele>81</ele>
        <time>2016-02-21T15:44:56.1Z</time>
      </trkpt>
      <trkpt lat="48.65093" lon="-2.43486">
        <ele>81</ele>
        <time>2016-02-21T15:44:59.1Z</time>
      </trkpt>
      <trkpt lat="48.65091" lon="-2.43485">
        <ele>82</ele>
        <time>2016-02-21T15:45:01.1Z</time>
      </trkpt>
      <trkpt lat="48.65088" lon="-2.43483">
        <ele>82</ele>
        <time>2016-02-21T15:45:04.1Z</time>
      </trkpt>
      <trkpt lat="48.65086" lon="-2.43482">
        <ele>82</ele>
        <time>2016-02-21T15:45:06.1Z</time>
      </trkpt>
      <trkpt lat="48.65084" lon="-2.4348">
        <ele>82</ele>
        <time>2016-02-21T15:45:08.1Z</time>
      </trkpt>
      <trkpt lat="48.65081" lon="-2.43478">
        <ele>83</ele>
        <time>2016-02-21T15:45:11.1Z</time>
      </trkpt>
      <trkpt lat="48.65079" lon="-2.43477">
        <ele>83</ele>
        <time>2016-02-21T15:45:13.1Z</time>
      </trkpt>
      <trkpt lat="48.65076" lon="-2.43474">
        <ele>84</ele>
        <time>2016-02-21T15:45:16.1Z</time>
      </trkpt>
      <trkpt lat="48.65074" lon="-2.43473">
        <ele>84</ele>
        <time>2016-02-21T15:45:18.1Z</time>
      </trkpt>
      <trkpt lat="48.65072" lon="-2.43471">
        <ele>84</ele>
        <time>2016-02-21T15:45:20.1Z</time>
      </trkpt>
      <trkpt lat="48.65069" lon="-2.43469">
        <ele>84</ele>
        <time>2016-02-21T15:45:23.1Z</time>
      </trkpt>
      <trkpt lat="48.65068" lon="-2.43467">
        <ele>84</ele>
        <time>2016-02-21T15:45:25.1Z</time>
      </trkpt>
      <trkpt lat="48.65066" lon="-2.43465">
        <ele>85</ele>
        <time>2016-02-21T15:45:27.1Z</time>
      </trkpt>
      <trkpt lat="48.65063" lon="-2.43463">
        <ele>85</ele>
        <time>2016-02-21T15:45:30.1Z</time>
      </trkpt>
      <trkpt lat="48.65061" lon="-2.43461">
        <ele>85</ele>
        <time>2016-02-21T15:45:32.1Z</time>
      </trkpt>
      <trkpt lat="48.65059" lon="-2.43459">
        <ele>86</ele>
        <time>2016-02-21T15:45:34.1Z</time>
      </trkpt>
      <trkpt lat="48.65056" lon="-2.43456">
        <ele>86</ele>
        <time>2016-02-21T15:45:37.1Z</time>
      </trkpt>
      <trkpt lat="48.65055" lon="-2.43455">
        <ele>87</ele>
        <time>2016-02-21T15:45:39.1Z</time>
      </trkpt>
      <trkpt lat="48.65053" lon="-2.43453">
        <ele>87</ele>
        <time>2016-02-21T15:45:41.1Z</time>
      </trkpt>
      <trkpt lat="48.65051" lon="-2.43451">
        <ele>87</ele>
        <time>2016-02-21T15:45:43.1Z</time>
      </trkpt>
      <trkpt lat="48.65049" lon="-2.43449">
        <ele>87</ele>
        <time>2016-02-21T15:45:45.1Z</time>
      </trkpt>
      <trkpt lat="48.65048" lon="-2.43447">
        <ele>87</ele>
        <time>2016-02-21T15:45:47.1Z</time>
      </trkpt>
      <trkpt lat="48.65045" lon="-2.43444">
        <ele>88</ele>
        <time>2016-02-21T15:45:50.1Z</time>
      </trkpt>
      <trkpt lat="48.65043" lon="-2.43441">
        <ele>88</ele>
        <time>2016-02-21T15:45:53.1Z</time>
      </trkpt>
      <trkpt lat="48.65041" lon="-2.43437">
        <ele>88</ele>
        <time>2016-02-21T15:45:56.1Z</time>
      </trkpt>
      <trkpt lat="48.65039" lon="-2.43435">
        <ele>88</ele>
        <time>2016-02-21T15:45:58.1Z</time>
      </trkpt>
      <trkpt lat="48.65038" lon="-2.43433">
        <ele>89</ele>
        <time>2016-02-21T15:46:00.1Z</time>
      </trkpt>
      <trkpt lat="48.65035" lon="-2.4343">
        <ele>89</ele>
        <time>2016-02-21T15:46:03.1Z</time>
      </trkpt>
      <trkpt lat="48.65033" lon="-2.43428">
        <ele>90</ele>
        <time>2016-02-21T15:46:06.1Z</time>
      </trkpt>
      <trkpt lat="48.65031" lon="-2.43426">
        <ele>90</ele>
        <time>2016-02-21T15:46:08.1Z</time>
      </trkpt>
      <trkpt lat="48.65028" lon="-2.43424">
        <ele>91</ele>
        <time>2016-02-21T15:46:11.1Z</time>
      </trkpt>
      <trkpt lat="48.65027" lon="-2.43422">
        <ele>91</ele>
        <time>2016-02-21T15:46:13.1Z</time>
      </trkpt>
      <trkpt lat="48.65025" lon="-2.43421">
        <ele>91</ele>
        <time>2016-02-21T15:46:15.1Z</time>
      </trkpt>
      <trkpt lat="48.65024" lon="-2.43422">
        <ele>92</ele>
        <time>2016-02-21T15:46:17.1Z</time>
      </trkpt>
      <trkpt lat="48.65023" lon="-2.43423">
        <ele>92</ele>
        <time>2016-02-21T15:46:19.1Z</time>
      </trkpt>
      <trkpt lat="48.65023" lon="-2.43422">
        <ele>92</ele>
        <time>2016-02-21T15:46:22.1Z</time>
      </trkpt>
      <trkpt lat="48.65023" lon="-2.43422">
        <ele>93</ele>
        <time>2016-02-21T15:46:24.1Z</time>
      </trkpt>
      <trkpt lat="48.65022" lon="-2.43418">
        <ele>93</ele>
        <time>2016-02-21T15:46:27.1Z</time>
      </trkpt>
      <trkpt lat="48.6502" lon="-2.43417">
        <ele>93</ele>
        <time>2016-02-21T15:46:29.1Z</time>
      </trkpt>
      <trkpt lat="48.65017" lon="-2.43414">
        <ele>93</ele>
        <time>2016-02-21T15:46:32.1Z</time>
      </trkpt>
      <trkpt lat="48.65015" lon="-2.43413">
        <ele>93</ele>
        <time>2016-02-21T15:46:34.1Z</time>
      </trkpt>
      <trkpt lat="48.65013" lon="-2.43411">
        <ele>94</ele>
        <time>2016-02-21T15:46:37.1Z</time>
      </trkpt>
      <trkpt lat="48.65011" lon="-2.43409">
        <ele>94</ele>
        <time>2016-02-21T15:46:39.1Z</time>
      </trkpt>
      <trkpt lat="48.65009" lon="-2.43408">
        <ele>94</ele>
        <time>2016-02-21T15:46:41.1Z</time>
      </trkpt>
      <trkpt lat="48.65007" lon="-2.43407">
        <ele>95</ele>
        <time>2016-02-21T15:46:43.1Z</time>
      </trkpt>
      <trkpt lat="48.65005" lon="-2.43405">
        <ele>95</ele>
        <time>2016-02-21T15:46:45.1Z</time>
      </trkpt>
      <trkpt lat="48.65003" lon="-2.43404">
        <ele>95</ele>
        <time>2016-02-21T15:46:47.1Z</time>
      </trkpt>
      <trkpt lat="48.65" lon="-2.43402">
        <ele>95</ele>
        <time>2016-02-21T15:46:50.1Z</time>
      </trkpt>
      <trkpt lat="48.64998" lon="-2.43401">
        <ele>95</ele>
        <time>2016-02-21T15:46:52.1Z</time>
      </trkpt>
      <trkpt lat="48.64994" lon="-2.434">
        <ele>96</ele>
        <time>2016-02-21T15:46:55.1Z</time>
      </trkpt>
      <trkpt lat="48.64992" lon="-2.43399">
        <ele>96</ele>
        <time>2016-02-21T15:46:57.1Z</time>
      </trkpt>
      <trkpt lat="48.64989" lon="-2.43399">
        <ele>96</ele>
        <time>2016-02-21T15:46:59.1Z</time>
      </trkpt>
      <trkpt lat="48.64986" lon="-2.43399">
        <ele>97</ele>
        <time>2016-02-21T15:47:02.1Z</time>
      </trkpt>
      <trkpt lat="48.64983" lon="-2.43399">
        <ele>97</ele>
        <time>2016-02-21T15:47:04.1Z</time>
      </trkpt>
      <trkpt lat="48.6498" lon="-2.43398">
        <ele>97</ele>
        <time>2016-02-21T15:47:07.1Z</time>
      </trkpt>
      <trkpt lat="48.64977" lon="-2.43397">
        <ele>97</ele>
        <time>2016-02-21T15:47:09.1Z</time>
      </trkpt>
      <trkpt lat="48.64974" lon="-2.43396">
        <ele>97</ele>
        <time>2016-02-21T15:47:12.1Z</time>
      </trkpt>
      <trkpt lat="48.64972" lon="-2.43397">
        <ele>98</ele>
        <time>2016-02-21T15:47:14.1Z</time>
      </trkpt>
      <trkpt lat="48.64969" lon="-2.43396">
        <ele>98</ele>
        <time>2016-02-21T15:47:16.1Z</time>
      </trkpt>
      <trkpt lat="48.64966" lon="-2.43396">
        <ele>98</ele>
        <time>2016-02-21T15:47:19.1Z</time>
      </trkpt>
      <trkpt lat="48.64964" lon="-2.43396">
        <ele>98</ele>
        <time>2016-02-21T15:47:21.1Z</time>
      </trkpt>
      <trkpt lat="48.6496" lon="-2.43395">
        <ele>99</ele>
        <time>2016-02-21T15:47:24.1Z</time>
      </trkpt>
      <trkpt lat="48.64958" lon="-2.43395">
        <ele>99</ele>
        <time>2016-02-21T15:47:26.1Z</time>
      </trkpt>
      <trkpt lat="48.64956" lon="-2.43395">
        <ele>99</ele>
        <time>2016-02-21T15:47:28.1Z</time>
      </trkpt>
      <trkpt lat="48.64954" lon="-2.43395">
        <ele>99</ele>
        <time>2016-02-21T15:47:30.1Z</time>
      </trkpt>
      <trkpt lat="48.64951" lon="-2.43395">
        <ele>100</ele>
        <time>2016-02-21T15:47:32.1Z</time>
      </trkpt>
      <trkpt lat="48.64948" lon="-2.43395">
        <ele>100</ele>
        <time>2016-02-21T15:47:35.1Z</time>
      </trkpt>
      <trkpt lat="48.64946" lon="-2.43395">
        <ele>100</ele>
        <time>2016-02-21T15:47:37.1Z</time>
      </trkpt>
      <trkpt lat="48.64943" lon="-2.43394">
        <ele>100</ele>
        <time>2016-02-21T15:47:39.1Z</time>
      </trkpt>
      <trkpt lat="48.6494" lon="-2.43393">
        <ele>100</ele>
        <time>2016-02-21T15:47:42.1Z</time>
      </trkpt>
      <trkpt lat="48.64938" lon="-2.43393">
        <ele>101</ele>
        <time>2016-02-21T15:47:44.1Z</time>
      </trkpt>
      <trkpt lat="48.64935" lon="-2.43392">
        <ele>101</ele>
        <time>2016-02-21T15:47:47.1Z</time>
      </trkpt>
      <trkpt lat="48.64933" lon="-2.43392">
        <ele>101</ele>
        <time>2016-02-21T15:47:49.1Z</time>
      </trkpt>
      <trkpt lat="48.6493" lon="-2.43392">
        <ele>102</ele>
        <time>2016-02-21T15:47:51.1Z</time>
      </trkpt>
      <trkpt lat="48.64927" lon="-2.43392">
        <ele>102</ele>
        <time>2016-02-21T15:47:54.1Z</time>
      </trkpt>
      <trkpt lat="48.64925" lon="-2.43391">
        <ele>102</ele>
        <time>2016-02-21T15:47:56.1Z</time>
      </trkpt>
      <trkpt lat="48.64922" lon="-2.43391">
        <ele>103</ele>
        <time>2016-02-21T15:47:59.1Z</time>
      </trkpt>
      <trkpt lat="48.6492" lon="-2.4339">
        <ele>103</ele>
        <time>2016-02-21T15:48:01.1Z</time>
      </trkpt>
      <trkpt lat="48.64917" lon="-2.43388">
        <ele>103</ele>
        <time>2016-02-21T15:48:03.1Z</time>
      </trkpt>
      <trkpt lat="48.64915" lon="-2.43387">
        <ele>103</ele>
        <time>2016-02-21T15:48:06.1Z</time>
      </trkpt>
      <trkpt lat="48.64914" lon="-2.43386">
        <ele>103</ele>
        <time>2016-02-21T15:48:08.1Z</time>
      </trkpt>
      <trkpt lat="48.64911" lon="-2.43384">
        <ele>103</ele>
        <time>2016-02-21T15:48:11.1Z</time>
      </trkpt>
      <trkpt lat="48.6491" lon="-2.43383">
        <ele>104</ele>
        <time>2016-02-21T15:48:13.1Z</time>
      </trkpt>
      <trkpt lat="48.64908" lon="-2.43383">
        <ele>104</ele>
        <time>2016-02-21T15:48:16.1Z</time>
      </trkpt>
      <trkpt lat="48.64905" lon="-2.4338">
        <ele>104</ele>
        <time>2016-02-21T15:48:19.1Z</time>
      </trkpt>
      <trkpt lat="48.64902" lon="-2.43377">
        <ele>105</ele>
        <time>2016-02-21T15:48:22.1Z</time>
      </trkpt>
      <trkpt lat="48.64901" lon="-2.43375">
        <ele>105</ele>
        <time>2016-02-21T15:48:24.1Z</time>
      </trkpt>
      <trkpt lat="48.64898" lon="-2.43372">
        <ele>105</ele>
        <time>2016-02-21T15:48:27.1Z</time>
      </trkpt>
      <trkpt lat="48.64895" lon="-2.4337">
        <ele>106</ele>
        <time>2016-02-21T15:48:29.1Z</time>
      </trkpt>
      <trkpt lat="48.64893" lon="-2.43367">
        <ele>106</ele>
        <time>2016-02-21T15:48:32.1Z</time>
      </trkpt>
      <trkpt lat="48.6489" lon="-2.43364">
        <ele>106</ele>
        <time>2016-02-21T15:48:36.1Z</time>
      </trkpt>
      <trkpt lat="48.64888" lon="-2.43363">
        <ele>106</ele>
        <time>2016-02-21T15:48:38.1Z</time>
      </trkpt>
      <trkpt lat="48.64886" lon="-2.43361">
        <ele>106</ele>
        <time>2016-02-21T15:48:40.1Z</time>
      </trkpt>
      <trkpt lat="48.64884" lon="-2.43359">
        <ele>106</ele>
        <time>2016-02-21T15:48:43.1Z</time>
      </trkpt>
      <trkpt lat="48.64881" lon="-2.43357">
        <ele>106</ele>
        <time>2016-02-21T15:48:46.1Z</time>
      </trkpt>
      <trkpt lat="48.64878" lon="-2.43355">
        <ele>106</ele>
        <time>2016-02-21T15:48:48.1Z</time>
      </trkpt>
      <trkpt lat="48.64876" lon="-2.43353">
        <ele>107</ele>
        <time>2016-02-21T15:48:51.1Z</time>
      </trkpt>
      <trkpt lat="48.64874" lon="-2.4335">
        <ele>107</ele>
        <time>2016-02-21T15:48:54.1Z</time>
      </trkpt>
      <trkpt lat="48.64872" lon="-2.43349">
        <ele>107</ele>
        <time>2016-02-21T15:48:56.1Z</time>
      </trkpt>
      <trkpt lat="48.6487" lon="-2.43348">
        <ele>107</ele>
        <time>2016-02-21T15:48:59.1Z</time>
      </trkpt>
      <trkpt lat="48.64867" lon="-2.43346">
        <ele>107</ele>
        <time>2016-02-21T15:49:01.1Z</time>
      </trkpt>
      <trkpt lat="48.64866" lon="-2.43345">
        <ele>107</ele>
        <time>2016-02-21T15:49:03.1Z</time>
      </trkpt>
      <trkpt lat="48.64863" lon="-2.43343">
        <ele>107</ele>
        <time>2016-02-21T15:49:05.1Z</time>
      </trkpt>
      <trkpt lat="48.64861" lon="-2.43342">
        <ele>108</ele>
        <time>2016-02-21T15:49:07.1Z</time>
      </trkpt>
      <trkpt lat="48.64857" lon="-2.43341">
        <ele>108</ele>
        <time>2016-02-21T15:49:09.1Z</time>
      </trkpt>
      <trkpt lat="48.64854" lon="-2.43339">
        <ele>109</ele>
        <time>2016-02-21T15:49:12.1Z</time>
      </trkpt>
      <trkpt lat="48.64852" lon="-2.43338">
        <ele>109</ele>
        <time>2016-02-21T15:49:15.1Z</time>
      </trkpt>
      <trkpt lat="48.64848" lon="-2.43337">
        <ele>109</ele>
        <time>2016-02-21T15:49:17.1Z</time>
      </trkpt>
      <trkpt lat="48.64846" lon="-2.43336">
        <ele>109</ele>
        <time>2016-02-21T15:49:20.1Z</time>
      </trkpt>
      <trkpt lat="48.64843" lon="-2.43335">
        <ele>109</ele>
        <time>2016-02-21T15:49:22.1Z</time>
      </trkpt>
      <trkpt lat="48.6484" lon="-2.43334">
        <ele>109</ele>
        <time>2016-02-21T15:49:24.1Z</time>
      </trkpt>
      <trkpt lat="48.64837" lon="-2.43334">
        <ele>109</ele>
        <time>2016-02-21T15:49:27.1Z</time>
      </trkpt>
      <trkpt lat="48.64833" lon="-2.43334">
        <ele>109</ele>
        <time>2016-02-21T15:49:29.1Z</time>
      </trkpt>
      <trkpt lat="48.64831" lon="-2.43334">
        <ele>110</ele>
        <time>2016-02-21T15:49:31.1Z</time>
      </trkpt>
      <trkpt lat="48.64829" lon="-2.43334">
        <ele>110</ele>
        <time>2016-02-21T15:49:34.1Z</time>
      </trkpt>
      <trkpt lat="48.64825" lon="-2.43334">
        <ele>110</ele>
        <time>2016-02-21T15:49:36.1Z</time>
      </trkpt>
      <trkpt lat="48.64823" lon="-2.43334">
        <ele>110</ele>
        <time>2016-02-21T15:49:39.1Z</time>
      </trkpt>
      <trkpt lat="48.64819" lon="-2.43334">
        <ele>110</ele>
        <time>2016-02-21T15:49:41.1Z</time>
      </trkpt>
      <trkpt lat="48.64817" lon="-2.43334">
        <ele>110</ele>
        <time>2016-02-21T15:49:44.1Z</time>
      </trkpt>
      <trkpt lat="48.64814" lon="-2.43334">
        <ele>110</ele>
        <time>2016-02-21T15:49:46.1Z</time>
      </trkpt>
      <trkpt lat="48.64812" lon="-2.43334">
        <ele>110</ele>
        <time>2016-02-21T15:49:48.1Z</time>
      </trkpt>
      <trkpt lat="48.64809" lon="-2.43335">
        <ele>110</ele>
        <time>2016-02-21T15:49:50.1Z</time>
      </trkpt>
      <trkpt lat="48.64807" lon="-2.43334">
        <ele>110</ele>
        <time>2016-02-21T15:49:52.1Z</time>
      </trkpt>
      <trkpt lat="48.64804" lon="-2.43334">
        <ele>111</ele>
        <time>2016-02-21T15:49:54.1Z</time>
      </trkpt>
      <trkpt lat="48.64802" lon="-2.43334">
        <ele>111</ele>
        <time>2016-02-21T15:49:57.1Z</time>
      </trkpt>
      <trkpt lat="48.64799" lon="-2.43335">
        <ele>111</ele>
        <time>2016-02-21T15:49:59.1Z</time>
      </trkpt>
      <trkpt lat="48.64797" lon="-2.43335">
        <ele>111</ele>
        <time>2016-02-21T15:50:01.1Z</time>
      </trkpt>
      <trkpt lat="48.64794" lon="-2.43335">
        <ele>111</ele>
        <time>2016-02-21T15:50:04.1Z</time>
      </trkpt>
      <trkpt lat="48.64791" lon="-2.43335">
        <ele>111</ele>
        <time>2016-02-21T15:50:06.1Z</time>
      </trkpt>
      <trkpt lat="48.64788" lon="-2.43336">
        <ele>111</ele>
        <time>2016-02-21T15:50:09.1Z</time>
      </trkpt>
      <trkpt lat="48.64785" lon="-2.43336">
        <ele>112</ele>
        <time>2016-02-21T15:50:11.1Z</time>
      </trkpt>
      <trkpt lat="48.64783" lon="-2.43337">
        <ele>112</ele>
        <time>2016-02-21T15:50:14.1Z</time>
      </trkpt>
      <trkpt lat="48.6478" lon="-2.43338">
        <ele>112</ele>
        <time>2016-02-21T15:50:16.1Z</time>
      </trkpt>
      <trkpt lat="48.64778" lon="-2.43338">
        <ele>112</ele>
        <time>2016-02-21T15:50:19.1Z</time>
      </trkpt>
      <trkpt lat="48.64774" lon="-2.43339">
        <ele>112</ele>
        <time>2016-02-21T15:50:21.1Z</time>
      </trkpt>
      <trkpt lat="48.64772" lon="-2.43341">
        <ele>112</ele>
        <time>2016-02-21T15:50:23.1Z</time>
      </trkpt>
      <trkpt lat="48.6477" lon="-2.43341">
        <ele>112</ele>
        <time>2016-02-21T15:50:26.1Z</time>
      </trkpt>
      <trkpt lat="48.64768" lon="-2.43342">
        <ele>112</ele>
        <time>2016-02-21T15:50:28.1Z</time>
      </trkpt>
      <trkpt lat="48.64764" lon="-2.43344">
        <ele>113</ele>
        <time>2016-02-21T15:50:30.1Z</time>
      </trkpt>
      <trkpt lat="48.64762" lon="-2.43345">
        <ele>113</ele>
        <time>2016-02-21T15:50:32.1Z</time>
      </trkpt>
      <trkpt lat="48.6476" lon="-2.43346">
        <ele>113</ele>
        <time>2016-02-21T15:50:35.1Z</time>
      </trkpt>
      <trkpt lat="48.64757" lon="-2.43348">
        <ele>113</ele>
        <time>2016-02-21T15:50:37.1Z</time>
      </trkpt>
      <trkpt lat="48.64755" lon="-2.43349">
        <ele>113</ele>
        <time>2016-02-21T15:50:39.1Z</time>
      </trkpt>
      <trkpt lat="48.64751" lon="-2.43351">
        <ele>113</ele>
        <time>2016-02-21T15:50:41.1Z</time>
      </trkpt>
      <trkpt lat="48.64749" lon="-2.43352">
        <ele>113</ele>
        <time>2016-02-21T15:50:44.1Z</time>
      </trkpt>
      <trkpt lat="48.64745" lon="-2.43354">
        <ele>113</ele>
        <time>2016-02-21T15:50:46.1Z</time>
      </trkpt>
      <trkpt lat="48.64743" lon="-2.43355">
        <ele>113</ele>
        <time>2016-02-21T15:50:48.1Z</time>
      </trkpt>
      <trkpt lat="48.64741" lon="-2.43357">
        <ele>113</ele>
        <time>2016-02-21T15:50:51.1Z</time>
      </trkpt>
      <trkpt lat="48.64738" lon="-2.43359">
        <ele>114</ele>
        <time>2016-02-21T15:50:53.1Z</time>
      </trkpt>
      <trkpt lat="48.64736" lon="-2.4336">
        <ele>114</ele>
        <time>2016-02-21T15:50:55.1Z</time>
      </trkpt>
      <trkpt lat="48.64733" lon="-2.43363">
        <ele>114</ele>
        <time>2016-02-21T15:50:59.1Z</time>
      </trkpt>
      <trkpt lat="48.6473" lon="-2.43365">
        <ele>114</ele>
        <time>2016-02-21T15:51:02.1Z</time>
      </trkpt>
      <trkpt lat="48.64727" lon="-2.43367">
        <ele>115</ele>
        <time>2016-02-21T15:51:04.1Z</time>
      </trkpt>
      <trkpt lat="48.64725" lon="-2.43369">
        <ele>115</ele>
        <time>2016-02-21T15:51:06.1Z</time>
      </trkpt>
      <trkpt lat="48.64722" lon="-2.43372">
        <ele>115</ele>
        <time>2016-02-21T15:51:10.1Z</time>
      </trkpt>
      <trkpt lat="48.64718" lon="-2.43374">
        <ele>115</ele>
        <time>2016-02-21T15:51:12.1Z</time>
      </trkpt>
      <trkpt lat="48.64716" lon="-2.43376">
        <ele>115</ele>
        <time>2016-02-21T15:51:15.1Z</time>
      </trkpt>
      <trkpt lat="48.64713" lon="-2.43378">
        <ele>115</ele>
        <time>2016-02-21T15:51:17.1Z</time>
      </trkpt>
      <trkpt lat="48.64711" lon="-2.4338">
        <ele>115</ele>
        <time>2016-02-21T15:51:19.1Z</time>
      </trkpt>
      <trkpt lat="48.64709" lon="-2.43382">
        <ele>115</ele>
        <time>2016-02-21T15:51:21.1Z</time>
      </trkpt>
      <trkpt lat="48.64706" lon="-2.43384">
        <ele>115</ele>
        <time>2016-02-21T15:51:24.1Z</time>
      </trkpt>
      <trkpt lat="48.64703" lon="-2.43387">
        <ele>115</ele>
        <time>2016-02-21T15:51:27.1Z</time>
      </trkpt>
      <trkpt lat="48.64701" lon="-2.43388">
        <ele>115</ele>
        <time>2016-02-21T15:51:30.1Z</time>
      </trkpt>
      <trkpt lat="48.64698" lon="-2.4339">
        <ele>115</ele>
        <time>2016-02-21T15:51:32.1Z</time>
      </trkpt>
      <trkpt lat="48.64696" lon="-2.43392">
        <ele>115</ele>
        <time>2016-02-21T15:51:34.1Z</time>
      </trkpt>
      <trkpt lat="48.64693" lon="-2.43394">
        <ele>116</ele>
        <time>2016-02-21T15:51:37.1Z</time>
      </trkpt>
      <trkpt lat="48.6469" lon="-2.43397">
        <ele>116</ele>
        <time>2016-02-21T15:51:40.1Z</time>
      </trkpt>
      <trkpt lat="48.64687" lon="-2.43398">
        <ele>116</ele>
        <time>2016-02-21T15:51:43.1Z</time>
      </trkpt>
      <trkpt lat="48.64684" lon="-2.43401">
        <ele>116</ele>
        <time>2016-02-21T15:51:46.1Z</time>
      </trkpt>
      <trkpt lat="48.64681" lon="-2.43404">
        <ele>116</ele>
        <time>2016-02-21T15:51:48.1Z</time>
      </trkpt>
      <trkpt lat="48.64678" lon="-2.43406">
        <ele>116</ele>
        <time>2016-02-21T15:51:51.1Z</time>
      </trkpt>
      <trkpt lat="48.64675" lon="-2.43408">
        <ele>116</ele>
        <time>2016-02-21T15:51:54.1Z</time>
      </trkpt>
      <trkpt lat="48.64672" lon="-2.43409">
        <ele>116</ele>
        <time>2016-02-21T15:51:57.1Z</time>
      </trkpt>
      <trkpt lat="48.64669" lon="-2.4341">
        <ele>116</ele>
        <time>2016-02-21T15:51:59.1Z</time>
      </trkpt>
      <trkpt lat="48.64666" lon="-2.43412">
        <ele>116</ele>
        <time>2016-02-21T15:52:02.1Z</time>
      </trkpt>
      <trkpt lat="48.64663" lon="-2.43413">
        <ele>116</ele>
        <time>2016-02-21T15:52:04.1Z</time>
      </trkpt>
      <trkpt lat="48.64661" lon="-2.43414">
        <ele>116</ele>
        <time>2016-02-21T15:52:07.1Z</time>
      </trkpt>
      <trkpt lat="48.64658" lon="-2.43414">
        <ele>116</ele>
        <time>2016-02-21T15:52:10.1Z</time>
      </trkpt>
      <trkpt lat="48.64656" lon="-2.43414">
        <ele>116</ele>
        <time>2016-02-21T15:52:13.1Z</time>
      </trkpt>
      <trkpt lat="48.64653" lon="-2.43415">
        <ele>116</ele>
        <time>2016-02-21T15:52:15.1Z</time>
      </trkpt>
      <trkpt lat="48.6465" lon="-2.43416">
        <ele>116</ele>
        <time>2016-02-21T15:52:17.1Z</time>
      </trkpt>
      <trkpt lat="48.64648" lon="-2.43416">
        <ele>116</ele>
        <time>2016-02-21T15:52:19.1Z</time>
      </trkpt>
      <trkpt lat="48.64646" lon="-2.43417">
        <ele>116</ele>
        <time>2016-02-21T15:52:21.1Z</time>
      </trkpt>
      <trkpt lat="48.64643" lon="-2.43418">
        <ele>117</ele>
        <time>2016-02-21T15:52:24.1Z</time>
      </trkpt>
      <trkpt lat="48.64639" lon="-2.43419">
        <ele>116</ele>
        <time>2016-02-21T15:52:28.1Z</time>
      </trkpt>
      <trkpt lat="48.64636" lon="-2.4342">
        <ele>117</ele>
        <time>2016-02-21T15:52:30.1Z</time>
      </trkpt>
      <trkpt lat="48.64633" lon="-2.43421">
        <ele>117</ele>
        <time>2016-02-21T15:52:32.1Z</time>
      </trkpt>
      <trkpt lat="48.64631" lon="-2.43421">
        <ele>117</ele>
        <time>2016-02-21T15:52:34.1Z</time>
      </trkpt>
      <trkpt lat="48.64629" lon="-2.43422">
        <ele>117</ele>
        <time>2016-02-21T15:52:36.1Z</time>
      </trkpt>
      <trkpt lat="48.64626" lon="-2.43423">
        <ele>116</ele>
        <time>2016-02-21T15:52:39.1Z</time>
      </trkpt>
      <trkpt lat="48.64626" lon="-2.43423">
        <ele>116</ele>
        <time>2016-02-21T15:52:41.1Z</time>
      </trkpt>
      <trkpt lat="48.64626" lon="-2.43423">
        <ele>116</ele>
        <time>2016-02-21T15:52:44.1Z</time>
      </trkpt>
      <trkpt lat="48.64626" lon="-2.43424">
        <ele>116</ele>
        <time>2016-02-21T15:52:46.1Z</time>
      </trkpt>
      <trkpt lat="48.64626" lon="-2.43424">
        <ele>116</ele>
        <time>2016-02-21T15:52:50.1Z</time>
      </trkpt>
      <trkpt lat="48.64624" lon="-2.43424">
        <ele>116</ele>
        <time>2016-02-21T15:52:52.1Z</time>
      </trkpt>
      <trkpt lat="48.64622" lon="-2.43424">
        <ele>116</ele>
        <time>2016-02-21T15:52:55.1Z</time>
      </trkpt>
      <trkpt lat="48.64619" lon="-2.43425">
        <ele>117</ele>
        <time>2016-02-21T15:52:59.1Z</time>
      </trkpt>
      <trkpt lat="48.64616" lon="-2.43425">
        <ele>117</ele>
        <time>2016-02-21T15:53:01.1Z</time>
      </trkpt>
      <trkpt lat="48.64614" lon="-2.43426">
        <ele>117</ele>
        <time>2016-02-21T15:53:03.1Z</time>
      </trkpt>
      <trkpt lat="48.64612" lon="-2.43426">
        <ele>117</ele>
        <time>2016-02-21T15:53:06.1Z</time>
      </trkpt>
      <trkpt lat="48.6461" lon="-2.43425">
        <ele>117</ele>
        <time>2016-02-21T15:53:09.1Z</time>
      </trkpt>
      <trkpt lat="48.64608" lon="-2.43423">
        <ele>117</ele>
        <time>2016-02-21T15:53:12.1Z</time>
      </trkpt>
      <trkpt lat="48.64608" lon="-2.43422">
        <ele>117</ele>
        <time>2016-02-21T15:53:14.1Z</time>
      </trkpt>
      <trkpt lat="48.64607" lon="-2.4342">
        <ele>117</ele>
        <time>2016-02-21T15:53:16.1Z</time>
      </trkpt>
      <trkpt lat="48.64606" lon="-2.4342">
        <ele>116</ele>
        <time>2016-02-21T15:53:21.1Z</time>
      </trkpt>
      <trkpt lat="48.64606" lon="-2.4342">
        <ele>116</ele>
        <time>2016-02-21T15:53:24.1Z</time>
      </trkpt>
      <trkpt lat="48.64606" lon="-2.43421">
        <ele>116</ele>
        <time>2016-02-21T15:53:27.1Z</time>
      </trkpt>
      <trkpt lat="48.64606" lon="-2.43421">
        <ele>116</ele>
        <time>2016-02-21T15:53:29.1Z</time>
      </trkpt>
      <trkpt lat="48.64606" lon="-2.43421">
        <ele>116</ele>
        <time>2016-02-21T15:53:31.1Z</time>
      </trkpt>
      <trkpt lat="48.64607" lon="-2.43421">
        <ele>116</ele>
        <time>2016-02-21T15:53:35.1Z</time>
      </trkpt>
      <trkpt lat="48.64608" lon="-2.4342">
        <ele>116</ele>
        <time>2016-02-21T15:53:37.1Z</time>
      </trkpt>
      <trkpt lat="48.64609" lon="-2.4342">
        <ele>116</ele>
        <time>2016-02-21T15:53:43.1Z</time>
      </trkpt>
      <trkpt lat="48.64609" lon="-2.43419">
        <ele>116</ele>
        <time>2016-02-21T15:53:45.1Z</time>
      </trkpt>
      <trkpt lat="48.6461" lon="-2.43419">
        <ele>116</ele>
        <time>2016-02-21T15:53:49.1Z</time>
      </trkpt>
      <trkpt lat="48.64611" lon="-2.43418">
        <ele>116</ele>
        <time>2016-02-21T15:53:51.1Z</time>
      </trkpt>
      <trkpt lat="48.64611" lon="-2.43416">
        <ele>116</ele>
        <time>2016-02-21T15:53:54.1Z</time>
      </trkpt>
      <trkpt lat="48.64612" lon="-2.43413">
        <ele>116</ele>
        <time>2016-02-21T15:53:57.1Z</time>
      </trkpt>
      <trkpt lat="48.64613" lon="-2.43412">
        <ele>116</ele>
        <time>2016-02-21T15:53:59.1Z</time>
      </trkpt>
      <trkpt lat="48.64614" lon="-2.43409">
        <ele>116</ele>
        <time>2016-02-21T15:54:02.1Z</time>
      </trkpt>
      <trkpt lat="48.64615" lon="-2.43407">
        <ele>116</ele>
        <time>2016-02-21T15:54:04.1Z</time>
      </trkpt>
      <trkpt lat="48.64617" lon="-2.43404">
        <ele>116</ele>
        <time>2016-02-21T15:54:07.1Z</time>
      </trkpt>
      <trkpt lat="48.64618" lon="-2.43402">
        <ele>116</ele>
        <time>2016-02-21T15:54:10.1Z</time>
      </trkpt>
      <trkpt lat="48.64618" lon="-2.43402">
        <ele>116</ele>
        <time>2016-02-21T15:54:12.1Z</time>
      </trkpt>
      <trkpt lat="48.64619" lon="-2.43401">
        <ele>116</ele>
        <time>2016-02-21T15:54:14.1Z</time>
      </trkpt>
      <trkpt lat="48.64619" lon="-2.43398">
        <ele>116</ele>
        <time>2016-02-21T15:54:17.1Z</time>
      </trkpt>
      <trkpt lat="48.6462" lon="-2.43395">
        <ele>116</ele>
        <time>2016-02-21T15:54:19.1Z</time>
      </trkpt>
      <trkpt lat="48.64621" lon="-2.43392">
        <ele>116</ele>
        <time>2016-02-21T15:54:21.1Z</time>
      </trkpt>
      <trkpt lat="48.64621" lon="-2.43388">
        <ele>115</ele>
        <time>2016-02-21T15:54:24.1Z</time>
      </trkpt>
      <trkpt lat="48.64622" lon="-2.43385">
        <ele>115</ele>
        <time>2016-02-21T15:54:26.1Z</time>
      </trkpt>
      <trkpt lat="48.64622" lon="-2.43382">
        <ele>115</ele>
        <time>2016-02-21T15:54:28.1Z</time>
      </trkpt>
      <trkpt lat="48.64623" lon="-2.43379">
        <ele>115</ele>
        <time>2016-02-21T15:54:31.1Z</time>
      </trkpt>
      <trkpt lat="48.64623" lon="-2.43375">
        <ele>115</ele>
        <time>2016-02-21T15:54:33.1Z</time>
      </trkpt>
      <trkpt lat="48.64624" lon="-2.43372">
        <ele>115</ele>
        <time>2016-02-21T15:54:35.1Z</time>
      </trkpt>
      <trkpt lat="48.64624" lon="-2.43369">
        <ele>115</ele>
        <time>2016-02-21T15:54:37.1Z</time>
      </trkpt>
      <trkpt lat="48.64625" lon="-2.43366">
        <ele>115</ele>
        <time>2016-02-21T15:54:39.1Z</time>
      </trkpt>
      <trkpt lat="48.64625" lon="-2.43361">
        <ele>115</ele>
        <time>2016-02-21T15:54:42.1Z</time>
      </trkpt>
      <trkpt lat="48.64626" lon="-2.43359">
        <ele>115</ele>
        <time>2016-02-21T15:54:44.1Z</time>
      </trkpt>
      <trkpt lat="48.64626" lon="-2.43356">
        <ele>115</ele>
        <time>2016-02-21T15:54:46.1Z</time>
      </trkpt>
      <trkpt lat="48.64626" lon="-2.43353">
        <ele>115</ele>
        <time>2016-02-21T15:54:48.1Z</time>
      </trkpt>
      <trkpt lat="48.64626" lon="-2.43349">
        <ele>115</ele>
        <time>2016-02-21T15:54:51.1Z</time>
      </trkpt>
      <trkpt lat="48.64627" lon="-2.43346">
        <ele>115</ele>
        <time>2016-02-21T15:54:53.1Z</time>
      </trkpt>
      <trkpt lat="48.64627" lon="-2.43343">
        <ele>115</ele>
        <time>2016-02-21T15:54:55.1Z</time>
      </trkpt>
      <trkpt lat="48.64627" lon="-2.4334">
        <ele>115</ele>
        <time>2016-02-21T15:54:57.1Z</time>
      </trkpt>
      <trkpt lat="48.64627" lon="-2.43335">
        <ele>115</ele>
        <time>2016-02-21T15:55:00.1Z</time>
      </trkpt>
      <trkpt lat="48.64627" lon="-2.43332">
        <ele>114</ele>
        <time>2016-02-21T15:55:02.1Z</time>
      </trkpt>
      <trkpt lat="48.64627" lon="-2.43329">
        <ele>114</ele>
        <time>2016-02-21T15:55:04.1Z</time>
      </trkpt>
      <trkpt lat="48.64627" lon="-2.43326">
        <ele>114</ele>
        <time>2016-02-21T15:55:06.1Z</time>
      </trkpt>
      <trkpt lat="48.64627" lon="-2.43321">
        <ele>114</ele>
        <time>2016-02-21T15:55:09.1Z</time>
      </trkpt>
      <trkpt lat="48.64627" lon="-2.43318">
        <ele>113</ele>
        <time>2016-02-21T15:55:11.1Z</time>
      </trkpt>
      <trkpt lat="48.64627" lon="-2.43315">
        <ele>113</ele>
        <time>2016-02-21T15:55:13.1Z</time>
      </trkpt>
      <trkpt lat="48.64627" lon="-2.43312">
        <ele>113</ele>
        <time>2016-02-21T15:55:15.1Z</time>
      </trkpt>
      <trkpt lat="48.64627" lon="-2.43307">
        <ele>113</ele>
        <time>2016-02-21T15:55:18.1Z</time>
      </trkpt>
      <trkpt lat="48.64627" lon="-2.43305">
        <ele>113</ele>
        <time>2016-02-21T15:55:20.1Z</time>
      </trkpt>
      <trkpt lat="48.64627" lon="-2.43302">
        <ele>113</ele>
        <time>2016-02-21T15:55:22.1Z</time>
      </trkpt>
      <trkpt lat="48.64627" lon="-2.43299">
        <ele>112</ele>
        <time>2016-02-21T15:55:24.1Z</time>
      </trkpt>
      <trkpt lat="48.64627" lon="-2.43295">
        <ele>112</ele>
        <time>2016-02-21T15:55:27.1Z</time>
      </trkpt>
      <trkpt lat="48.64627" lon="-2.43292">
        <ele>112</ele>
        <time>2016-02-21T15:55:29.1Z</time>
      </trkpt>
      <trkpt lat="48.64628" lon="-2.4329">
        <ele>112</ele>
        <time>2016-02-21T15:55:31.1Z</time>
      </trkpt>
      <trkpt lat="48.64629" lon="-2.43287">
        <ele>111</ele>
        <time>2016-02-21T15:55:33.1Z</time>
      </trkpt>
      <trkpt lat="48.64631" lon="-2.43284">
        <ele>111</ele>
        <time>2016-02-21T15:55:36.1Z</time>
      </trkpt>
      <trkpt lat="48.64632" lon="-2.43281">
        <ele>110</ele>
        <time>2016-02-21T15:55:38.1Z</time>
      </trkpt>
      <trkpt lat="48.64634" lon="-2.43279">
        <ele>110</ele>
        <time>2016-02-21T15:55:40.1Z</time>
      </trkpt>
      <trkpt lat="48.64635" lon="-2.43278">
        <ele>110</ele>
        <time>2016-02-21T15:55:42.1Z</time>
      </trkpt>
      <trkpt lat="48.64637" lon="-2.43277">
        <ele>110</ele>
        <time>2016-02-21T15:55:44.1Z</time>
      </trkpt>
      <trkpt lat="48.64641" lon="-2.43275">
        <ele>109</ele>
        <time>2016-02-21T15:55:47.1Z</time>
      </trkpt>
      <trkpt lat="48.64643" lon="-2.43274">
        <ele>109</ele>
        <time>2016-02-21T15:55:49.1Z</time>
      </trkpt>
      <trkpt lat="48.64645" lon="-2.43273">
        <ele>108</ele>
        <time>2016-02-21T15:55:51.1Z</time>
      </trkpt>
      <trkpt lat="48.64647" lon="-2.43273">
        <ele>108</ele>
        <time>2016-02-21T15:55:53.1Z</time>
      </trkpt>
      <trkpt lat="48.6465" lon="-2.43272">
        <ele>108</ele>
        <time>2016-02-21T15:55:55.1Z</time>
      </trkpt>
      <trkpt lat="48.64652" lon="-2.43271">
        <ele>107</ele>
        <time>2016-02-21T15:55:58.1Z</time>
      </trkpt>
      <trkpt lat="48.64654" lon="-2.4327">
        <ele>107</ele>
        <time>2016-02-21T15:56:00.1Z</time>
      </trkpt>
      <trkpt lat="48.64656" lon="-2.43269">
        <ele>106</ele>
        <time>2016-02-21T15:56:02.1Z</time>
      </trkpt>
      <trkpt lat="48.64657" lon="-2.43268">
        <ele>106</ele>
        <time>2016-02-21T15:56:04.1Z</time>
      </trkpt>
      <trkpt lat="48.64659" lon="-2.43268">
        <ele>106</ele>
        <time>2016-02-21T15:56:07.1Z</time>
      </trkpt>
      <trkpt lat="48.64662" lon="-2.43267">
        <ele>105</ele>
        <time>2016-02-21T15:56:10.1Z</time>
      </trkpt>
      <trkpt lat="48.64664" lon="-2.43267">
        <ele>104</ele>
        <time>2016-02-21T15:56:13.1Z</time>
      </trkpt>
      <trkpt lat="48.64667" lon="-2.43268">
        <ele>104</ele>
        <time>2016-02-21T15:56:16.1Z</time>
      </trkpt>
      <trkpt lat="48.64669" lon="-2.43267">
        <ele>103</ele>
        <time>2016-02-21T15:56:18.1Z</time>
      </trkpt>
      <trkpt lat="48.64671" lon="-2.43266">
        <ele>103</ele>
        <time>2016-02-21T15:56:20.1Z</time>
      </trkpt>
      <trkpt lat="48.64673" lon="-2.43266">
        <ele>103</ele>
        <time>2016-02-21T15:56:23.1Z</time>
      </trkpt>
      <trkpt lat="48.64676" lon="-2.43263">
        <ele>103</ele>
        <time>2016-02-21T15:56:25.1Z</time>
      </trkpt>
      <trkpt lat="48.64679" lon="-2.43261">
        <ele>103</ele>
        <time>2016-02-21T15:56:27.1Z</time>
      </trkpt>
      <trkpt lat="48.64682" lon="-2.4326">
        <ele>102</ele>
        <time>2016-02-21T15:56:30.1Z</time>
      </trkpt>
      <trkpt lat="48.64684" lon="-2.43258">
        <ele>101</ele>
        <time>2016-02-21T15:56:32.1Z</time>
      </trkpt>
      <trkpt lat="48.64687" lon="-2.43255">
        <ele>100</ele>
        <time>2016-02-21T15:56:35.1Z</time>
      </trkpt>
      <trkpt lat="48.64689" lon="-2.43254">
        <ele>100</ele>
        <time>2016-02-21T15:56:37.1Z</time>
      </trkpt>
      <trkpt lat="48.64691" lon="-2.43252">
        <ele>100</ele>
        <time>2016-02-21T15:56:40.1Z</time>
      </trkpt>
      <trkpt lat="48.64694" lon="-2.4325">
        <ele>100</ele>
        <time>2016-02-21T15:56:42.1Z</time>
      </trkpt>
      <trkpt lat="48.64696" lon="-2.43249">
        <ele>100</ele>
        <time>2016-02-21T15:56:44.1Z</time>
      </trkpt>
      <trkpt lat="48.64699" lon="-2.43247">
        <ele>99</ele>
        <time>2016-02-21T15:56:47.1Z</time>
      </trkpt>
      <trkpt lat="48.64703" lon="-2.43246">
        <ele>98</ele>
        <time>2016-02-21T15:56:50.1Z</time>
      </trkpt>
      <trkpt lat="48.64705" lon="-2.43244">
        <ele>98</ele>
        <time>2016-02-21T15:56:52.1Z</time>
      </trkpt>
      <trkpt lat="48.64707" lon="-2.43241">
        <ele>97</ele>
        <time>2016-02-21T15:56:54.1Z</time>
      </trkpt>
      <trkpt lat="48.64711" lon="-2.43239">
        <ele>97</ele>
        <time>2016-02-21T15:56:57.1Z</time>
      </trkpt>
      <trkpt lat="48.64714" lon="-2.43236">
        <ele>97</ele>
        <time>2016-02-21T15:57:00.1Z</time>
      </trkpt>
      <trkpt lat="48.64716" lon="-2.43233">
        <ele>96</ele>
        <time>2016-02-21T15:57:03.1Z</time>
      </trkpt>
      <trkpt lat="48.64718" lon="-2.43231">
        <ele>96</ele>
        <time>2016-02-21T15:57:05.1Z</time>
      </trkpt>
      <trkpt lat="48.6472" lon="-2.43229">
        <ele>96</ele>
        <time>2016-02-21T15:57:07.1Z</time>
      </trkpt>
      <trkpt lat="48.64723" lon="-2.43226">
        <ele>95</ele>
        <time>2016-02-21T15:57:10.1Z</time>
      </trkpt>
      <trkpt lat="48.64727" lon="-2.43222">
        <ele>94</ele>
        <time>2016-02-21T15:57:13.1Z</time>
      </trkpt>
      <trkpt lat="48.6473" lon="-2.43219">
        <ele>94</ele>
        <time>2016-02-21T15:57:16.1Z</time>
      </trkpt>
      <trkpt lat="48.64734" lon="-2.43216">
        <ele>94</ele>
        <time>2016-02-21T15:57:19.1Z</time>
      </trkpt>
      <trkpt lat="48.64736" lon="-2.43213">
        <ele>94</ele>
        <time>2016-02-21T15:57:21.1Z</time>
      </trkpt>
      <trkpt lat="48.64738" lon="-2.43211">
        <ele>94</ele>
        <time>2016-02-21T15:57:23.1Z</time>
      </trkpt>
      <trkpt lat="48.6474" lon="-2.43208">
        <ele>93</ele>
        <time>2016-02-21T15:57:26.1Z</time>
      </trkpt>
      <trkpt lat="48.64743" lon="-2.43204">
        <ele>93</ele>
        <time>2016-02-21T15:57:29.1Z</time>
      </trkpt>
      <trkpt lat="48.64745" lon="-2.43201">
        <ele>92</ele>
        <time>2016-02-21T15:57:32.1Z</time>
      </trkpt>
      <trkpt lat="48.64747" lon="-2.43199">
        <ele>92</ele>
        <time>2016-02-21T15:57:34.1Z</time>
      </trkpt>
      <trkpt lat="48.64748" lon="-2.43197">
        <ele>92</ele>
        <time>2016-02-21T15:57:36.1Z</time>
      </trkpt>
      <trkpt lat="48.6475" lon="-2.43195">
        <ele>92</ele>
        <time>2016-02-21T15:57:39.1Z</time>
      </trkpt>
      <trkpt lat="48.64753" lon="-2.43192">
        <ele>92</ele>
        <time>2016-02-21T15:57:41.1Z</time>
      </trkpt>
      <trkpt lat="48.64756" lon="-2.4319">
        <ele>91</ele>
        <time>2016-02-21T15:57:43.1Z</time>
      </trkpt>
      <trkpt lat="48.64758" lon="-2.43189">
        <ele>91</ele>
        <time>2016-02-21T15:57:45.1Z</time>
      </trkpt>
      <trkpt lat="48.64761" lon="-2.43186">
        <ele>91</ele>
        <time>2016-02-21T15:57:48.1Z</time>
      </trkpt>
      <trkpt lat="48.64764" lon="-2.43183">
        <ele>90</ele>
        <time>2016-02-21T15:57:50.1Z</time>
      </trkpt>
      <trkpt lat="48.64766" lon="-2.43182">
        <ele>90</ele>
        <time>2016-02-21T15:57:52.1Z</time>
      </trkpt>
      <trkpt lat="48.64769" lon="-2.43179">
        <ele>90</ele>
        <time>2016-02-21T15:57:55.1Z</time>
      </trkpt>
      <trkpt lat="48.64772" lon="-2.43176">
        <ele>90</ele>
        <time>2016-02-21T15:57:58.1Z</time>
      </trkpt>
      <trkpt lat="48.64774" lon="-2.43174">
        <ele>90</ele>
        <time>2016-02-21T15:58:00.1Z</time>
      </trkpt>
      <trkpt lat="48.64777" lon="-2.43172">
        <ele>90</ele>
        <time>2016-02-21T15:58:03.1Z</time>
      </trkpt>
      <trkpt lat="48.6478" lon="-2.43169">
        <ele>89</ele>
        <time>2016-02-21T15:58:05.1Z</time>
      </trkpt>
      <trkpt lat="48.64782" lon="-2.43167">
        <ele>89</ele>
        <time>2016-02-21T15:58:08.1Z</time>
      </trkpt>
      <trkpt lat="48.64785" lon="-2.43166">
        <ele>89</ele>
        <time>2016-02-21T15:58:10.1Z</time>
      </trkpt>
      <trkpt lat="48.64788" lon="-2.43163">
        <ele>88</ele>
        <time>2016-02-21T15:58:13.1Z</time>
      </trkpt>
      <trkpt lat="48.6479" lon="-2.43161">
        <ele>88</ele>
        <time>2016-02-21T15:58:16.1Z</time>
      </trkpt>
      <trkpt lat="48.64792" lon="-2.4316">
        <ele>88</ele>
        <time>2016-02-21T15:58:18.1Z</time>
      </trkpt>
      <trkpt lat="48.64795" lon="-2.43158">
        <ele>88</ele>
        <time>2016-02-21T15:58:21.1Z</time>
      </trkpt>
      <trkpt lat="48.64797" lon="-2.43157">
        <ele>88</ele>
        <time>2016-02-21T15:58:23.1Z</time>
      </trkpt>
      <trkpt lat="48.64801" lon="-2.43155">
        <ele>87</ele>
        <time>2016-02-21T15:58:26.1Z</time>
      </trkpt>
      <trkpt lat="48.64803" lon="-2.43154">
        <ele>87</ele>
        <time>2016-02-21T15:58:28.1Z</time>
      </trkpt>
      <trkpt lat="48.64807" lon="-2.43151">
        <ele>87</ele>
        <time>2016-02-21T15:58:31.1Z</time>
      </trkpt>
      <trkpt lat="48.64809" lon="-2.4315">
        <ele>87</ele>
        <time>2016-02-21T15:58:33.1Z</time>
      </trkpt>
      <trkpt lat="48.64812" lon="-2.43147">
        <ele>87</ele>
        <time>2016-02-21T15:58:36.1Z</time>
      </trkpt>
      <trkpt lat="48.64815" lon="-2.43144">
        <ele>87</ele>
        <time>2016-02-21T15:58:39.1Z</time>
      </trkpt>
      <trkpt lat="48.64816" lon="-2.43143">
        <ele>86</ele>
        <time>2016-02-21T15:58:41.1Z</time>
      </trkpt>
      <trkpt lat="48.64818" lon="-2.4314">
        <ele>86</ele>
        <time>2016-02-21T15:58:43.1Z</time>
      </trkpt>
      <trkpt lat="48.6482" lon="-2.43136">
        <ele>86</ele>
        <time>2016-02-21T15:58:46.1Z</time>
      </trkpt>
      <trkpt lat="48.64822" lon="-2.43133">
        <ele>86</ele>
        <time>2016-02-21T15:58:48.1Z</time>
      </trkpt>
      <trkpt lat="48.64824" lon="-2.4313">
        <ele>86</ele>
        <time>2016-02-21T15:58:51.1Z</time>
      </trkpt>
      <trkpt lat="48.64825" lon="-2.43128">
        <ele>86</ele>
        <time>2016-02-21T15:58:53.1Z</time>
      </trkpt>
      <trkpt lat="48.64826" lon="-2.43124">
        <ele>86</ele>
        <time>2016-02-21T15:58:56.1Z</time>
      </trkpt>
      <trkpt lat="48.64826" lon="-2.43121">
        <ele>85</ele>
        <time>2016-02-21T15:58:58.1Z</time>
      </trkpt>
      <trkpt lat="48.64826" lon="-2.43116">
        <ele>85</ele>
        <time>2016-02-21T15:59:01.1Z</time>
      </trkpt>
      <trkpt lat="48.64826" lon="-2.43112">
        <ele>86</ele>
        <time>2016-02-21T15:59:04.1Z</time>
      </trkpt>
      <trkpt lat="48.64826" lon="-2.43109">
        <ele>86</ele>
        <time>2016-02-21T15:59:06.1Z</time>
      </trkpt>
      <trkpt lat="48.64825" lon="-2.43105">
        <ele>87</ele>
        <time>2016-02-21T15:59:09.1Z</time>
      </trkpt>
      <trkpt lat="48.64824" lon="-2.43102">
        <ele>87</ele>
        <time>2016-02-21T15:59:11.1Z</time>
      </trkpt>
      <trkpt lat="48.64823" lon="-2.43098">
        <ele>87</ele>
        <time>2016-02-21T15:59:14.1Z</time>
      </trkpt>
      <trkpt lat="48.64822" lon="-2.43095">
        <ele>87</ele>
        <time>2016-02-21T15:59:16.1Z</time>
      </trkpt>
      <trkpt lat="48.64821" lon="-2.43091">
        <ele>88</ele>
        <time>2016-02-21T15:59:19.1Z</time>
      </trkpt>
      <trkpt lat="48.6482" lon="-2.43088">
        <ele>88</ele>
        <time>2016-02-21T15:59:21.1Z</time>
      </trkpt>
      <trkpt lat="48.64819" lon="-2.43085">
        <ele>88</ele>
        <time>2016-02-21T15:59:23.1Z</time>
      </trkpt>
      <trkpt lat="48.64819" lon="-2.43083">
        <ele>88</ele>
        <time>2016-02-21T15:59:25.1Z</time>
      </trkpt>
      <trkpt lat="48.64818" lon="-2.43079">
        <ele>88</ele>
        <time>2016-02-21T15:59:27.1Z</time>
      </trkpt>
      <trkpt lat="48.64817" lon="-2.43076">
        <ele>87</ele>
        <time>2016-02-21T15:59:30.1Z</time>
      </trkpt>
      <trkpt lat="48.64816" lon="-2.43073">
        <ele>87</ele>
        <time>2016-02-21T15:59:32.1Z</time>
      </trkpt>
      <trkpt lat="48.64815" lon="-2.4307">
        <ele>87</ele>
        <time>2016-02-21T15:59:34.1Z</time>
      </trkpt>
      <trkpt lat="48.64814" lon="-2.43064">
        <ele>87</ele>
        <time>2016-02-21T15:59:37.1Z</time>
      </trkpt>
      <trkpt lat="48.64814" lon="-2.43061">
        <ele>87</ele>
        <time>2016-02-21T15:59:39.1Z</time>
      </trkpt>
      <trkpt lat="48.64814" lon="-2.43055">
        <ele>87</ele>
        <time>2016-02-21T15:59:42.1Z</time>
      </trkpt>
      <trkpt lat="48.64814" lon="-2.43052">
        <ele>87</ele>
        <time>2016-02-21T15:59:44.1Z</time>
      </trkpt>
      <trkpt lat="48.64814" lon="-2.43047">
        <ele>87</ele>
        <time>2016-02-21T15:59:46.1Z</time>
      </trkpt>
      <trkpt lat="48.64814" lon="-2.4304">
        <ele>87</ele>
        <time>2016-02-21T15:59:49.1Z</time>
      </trkpt>
      <trkpt lat="48.64814" lon="-2.43035">
        <ele>86</ele>
        <time>2016-02-21T15:59:51.1Z</time>
      </trkpt>
      <trkpt lat="48.64815" lon="-2.43028">
        <ele>86</ele>
        <time>2016-02-21T15:59:54.1Z</time>
      </trkpt>
      <trkpt lat="48.64817" lon="-2.43022">
        <ele>86</ele>
        <time>2016-02-21T15:59:57.1Z</time>
      </trkpt>
      <trkpt lat="48.64817" lon="-2.43018">
        <ele>86</ele>
        <time>2016-02-21T15:59:59.1Z</time>
      </trkpt>
      <trkpt lat="48.64817" lon="-2.43013">
        <ele>86</ele>
        <time>2016-02-21T16:00:02.1Z</time>
      </trkpt>
      <trkpt lat="48.64817" lon="-2.43009">
        <ele>85</ele>
        <time>2016-02-21T16:00:04.1Z</time>
      </trkpt>
      <trkpt lat="48.64817" lon="-2.43006">
        <ele>85</ele>
        <time>2016-02-21T16:00:06.1Z</time>
      </trkpt>
      <trkpt lat="48.64817" lon="-2.43002">
        <ele>85</ele>
        <time>2016-02-21T16:00:08.1Z</time>
      </trkpt>
      <trkpt lat="48.64817" lon="-2.42999">
        <ele>84</ele>
        <time>2016-02-21T16:00:10.1Z</time>
      </trkpt>
      <trkpt lat="48.64818" lon="-2.42993">
        <ele>85</ele>
        <time>2016-02-21T16:00:13.1Z</time>
      </trkpt>
      <trkpt lat="48.64818" lon="-2.4299">
        <ele>85</ele>
        <time>2016-02-21T16:00:15.1Z</time>
      </trkpt>
      <trkpt lat="48.64818" lon="-2.42986">
        <ele>85</ele>
        <time>2016-02-21T16:00:17.1Z</time>
      </trkpt>
      <trkpt lat="48.64819" lon="-2.42982">
        <ele>84</ele>
        <time>2016-02-21T16:00:20.1Z</time>
      </trkpt>
      <trkpt lat="48.6482" lon="-2.42976">
        <ele>84</ele>
        <time>2016-02-21T16:00:23.1Z</time>
      </trkpt>
      <trkpt lat="48.6482" lon="-2.42972">
        <ele>84</ele>
        <time>2016-02-21T16:00:26.1Z</time>
      </trkpt>
      <trkpt lat="48.64821" lon="-2.42968">
        <ele>84</ele>
        <time>2016-02-21T16:00:28.1Z</time>
      </trkpt>
      <trkpt lat="48.64822" lon="-2.42963">
        <ele>84</ele>
        <time>2016-02-21T16:00:31.1Z</time>
      </trkpt>
      <trkpt lat="48.64822" lon="-2.42959">
        <ele>84</ele>
        <time>2016-02-21T16:00:33.1Z</time>
      </trkpt>
      <trkpt lat="48.64823" lon="-2.42956">
        <ele>84</ele>
        <time>2016-02-21T16:00:35.1Z</time>
      </trkpt>
      <trkpt lat="48.64824" lon="-2.42953">
        <ele>84</ele>
        <time>2016-02-21T16:00:37.1Z</time>
      </trkpt>
      <trkpt lat="48.64825" lon="-2.42948">
        <ele>84</ele>
        <time>2016-02-21T16:00:40.1Z</time>
      </trkpt>
      <trkpt lat="48.64826" lon="-2.42946">
        <ele>84</ele>
        <time>2016-02-21T16:00:42.1Z</time>
      </trkpt>
      <trkpt lat="48.64827" lon="-2.4294">
        <ele>84</ele>
        <time>2016-02-21T16:00:45.1Z</time>
      </trkpt>
      <trkpt lat="48.64827" lon="-2.42938">
        <ele>83</ele>
        <time>2016-02-21T16:00:47.1Z</time>
      </trkpt>
      <trkpt lat="48.64828" lon="-2.42934">
        <ele>83</ele>
        <time>2016-02-21T16:00:49.1Z</time>
      </trkpt>
      <trkpt lat="48.64829" lon="-2.42932">
        <ele>83</ele>
        <time>2016-02-21T16:00:51.1Z</time>
      </trkpt>
      <trkpt lat="48.64829" lon="-2.42928">
        <ele>83</ele>
        <time>2016-02-21T16:00:53.1Z</time>
      </trkpt>
      <trkpt lat="48.64832" lon="-2.42923">
        <ele>83</ele>
        <time>2016-02-21T16:00:56.1Z</time>
      </trkpt>
      <trkpt lat="48.64834" lon="-2.42921">
        <ele>82</ele>
        <time>2016-02-21T16:00:58.1Z</time>
      </trkpt>
      <trkpt lat="48.64837" lon="-2.42917">
        <ele>82</ele>
        <time>2016-02-21T16:01:01.1Z</time>
      </trkpt>
      <trkpt lat="48.6484" lon="-2.42914">
        <ele>81</ele>
        <time>2016-02-21T16:01:04.1Z</time>
      </trkpt>
      <trkpt lat="48.64843" lon="-2.42912">
        <ele>81</ele>
        <time>2016-02-21T16:01:06.1Z</time>
      </trkpt>
      <trkpt lat="48.64846" lon="-2.42909">
        <ele>81</ele>
        <time>2016-02-21T16:01:09.1Z</time>
      </trkpt>
      <trkpt lat="48.64849" lon="-2.42905">
        <ele>80</ele>
        <time>2016-02-21T16:01:12.1Z</time>
      </trkpt>
      <trkpt lat="48.64851" lon="-2.42903">
        <ele>80</ele>
        <time>2016-02-21T16:01:14.1Z</time>
      </trkpt>
      <trkpt lat="48.64852" lon="-2.42901">
        <ele>80</ele>
        <time>2016-02-21T16:01:16.1Z</time>
      </trkpt>
      <trkpt lat="48.64854" lon="-2.42897">
        <ele>80</ele>
        <time>2016-02-21T16:01:19.1Z</time>
      </trkpt>
      <trkpt lat="48.64855" lon="-2.42895">
        <ele>80</ele>
        <time>2016-02-21T16:01:21.1Z</time>
      </trkpt>
      <trkpt lat="48.64856" lon="-2.42892">
        <ele>80</ele>
        <time>2016-02-21T16:01:24.1Z</time>
      </trkpt>
      <trkpt lat="48.64859" lon="-2.42888">
        <ele>80</ele>
        <time>2016-02-21T16:01:27.1Z</time>
      </trkpt>
      <trkpt lat="48.6486" lon="-2.42885">
        <ele>79</ele>
        <time>2016-02-21T16:01:29.1Z</time>
      </trkpt>
      <trkpt lat="48.64862" lon="-2.42882">
        <ele>79</ele>
        <time>2016-02-21T16:01:32.1Z</time>
      </trkpt>
      <trkpt lat="48.64864" lon="-2.42879">
        <ele>78</ele>
        <time>2016-02-21T16:01:34.1Z</time>
      </trkpt>
      <trkpt lat="48.64866" lon="-2.42875">
        <ele>78</ele>
        <time>2016-02-21T16:01:37.1Z</time>
      </trkpt>
      <trkpt lat="48.64867" lon="-2.42872">
        <ele>78</ele>
        <time>2016-02-21T16:01:39.1Z</time>
      </trkpt>
      <trkpt lat="48.64869" lon="-2.42868">
        <ele>78</ele>
        <time>2016-02-21T16:01:42.1Z</time>
      </trkpt>
      <trkpt lat="48.64871" lon="-2.42865">
        <ele>78</ele>
        <time>2016-02-21T16:01:45.1Z</time>
      </trkpt>
      <trkpt lat="48.64873" lon="-2.42862">
        <ele>77</ele>
        <time>2016-02-21T16:01:48.1Z</time>
      </trkpt>
      <trkpt lat="48.64875" lon="-2.42859">
        <ele>77</ele>
        <time>2016-02-21T16:01:50.1Z</time>
      </trkpt>
      <trkpt lat="48.64877" lon="-2.42855">
        <ele>77</ele>
        <time>2016-02-21T16:01:53.1Z</time>
      </trkpt>
      <trkpt lat="48.64879" lon="-2.42852">
        <ele>77</ele>
        <time>2016-02-21T16:01:55.1Z</time>
      </trkpt>
      <trkpt lat="48.6488" lon="-2.4285">
        <ele>77</ele>
        <time>2016-02-21T16:01:57.1Z</time>
      </trkpt>
      <trkpt lat="48.64879" lon="-2.42848">
        <ele>77</ele>
        <time>2016-02-21T16:01:59.1Z</time>
      </trkpt>
      <trkpt lat="48.64879" lon="-2.42848">
        <ele>76</ele>
        <time>2016-02-21T16:02:02.1Z</time>
      </trkpt>
      <trkpt lat="48.64879" lon="-2.42847">
        <ele>76</ele>
        <time>2016-02-21T16:02:05.1Z</time>
      </trkpt>
      <trkpt lat="48.6488" lon="-2.42846">
        <ele>77</ele>
        <time>2016-02-21T16:02:08.1Z</time>
      </trkpt>
      <trkpt lat="48.6488" lon="-2.42843">
        <ele>77</ele>
        <time>2016-02-21T16:02:10.1Z</time>
      </trkpt>
      <trkpt lat="48.64878" lon="-2.42839">
        <ele>77</ele>
        <time>2016-02-21T16:02:12.1Z</time>
      </trkpt>
      <trkpt lat="48.64877" lon="-2.42836">
        <ele>76</ele>
        <time>2016-02-21T16:02:14.1Z</time>
      </trkpt>
      <trkpt lat="48.64876" lon="-2.42833">
        <ele>76</ele>
        <time>2016-02-21T16:02:16.1Z</time>
      </trkpt>
      <trkpt lat="48.64875" lon="-2.42829">
        <ele>76</ele>
        <time>2016-02-21T16:02:18.1Z</time>
      </trkpt>
      <trkpt lat="48.64874" lon="-2.42826">
        <ele>76</ele>
        <time>2016-02-21T16:02:20.1Z</time>
      </trkpt>
      <trkpt lat="48.64873" lon="-2.42821">
        <ele>76</ele>
        <time>2016-02-21T16:02:23.1Z</time>
      </trkpt>
      <trkpt lat="48.64872" lon="-2.42817">
        <ele>76</ele>
        <time>2016-02-21T16:02:25.1Z</time>
      </trkpt>
      <trkpt lat="48.64871" lon="-2.42814">
        <ele>77</ele>
        <time>2016-02-21T16:02:27.1Z</time>
      </trkpt>
      <trkpt lat="48.6487" lon="-2.42809">
        <ele>77</ele>
        <time>2016-02-21T16:02:30.1Z</time>
      </trkpt>
      <trkpt lat="48.6487" lon="-2.42806">
        <ele>77</ele>
        <time>2016-02-21T16:02:32.1Z</time>
      </trkpt>
      <trkpt lat="48.64871" lon="-2.428">
        <ele>77</ele>
        <time>2016-02-21T16:02:35.1Z</time>
      </trkpt>
      <trkpt lat="48.64872" lon="-2.42795">
        <ele>77</ele>
        <time>2016-02-21T16:02:38.1Z</time>
      </trkpt>
      <trkpt lat="48.64873" lon="-2.42789">
        <ele>77</ele>
        <time>2016-02-21T16:02:41.1Z</time>
      </trkpt>
      <trkpt lat="48.64873" lon="-2.42784">
        <ele>77</ele>
        <time>2016-02-21T16:02:44.1Z</time>
      </trkpt>
      <trkpt lat="48.64873" lon="-2.4278">
        <ele>77</ele>
        <time>2016-02-21T16:02:46.1Z</time>
      </trkpt>
      <trkpt lat="48.64872" lon="-2.42777">
        <ele>77</ele>
        <time>2016-02-21T16:02:48.1Z</time>
      </trkpt>
      <trkpt lat="48.64871" lon="-2.42774">
        <ele>77</ele>
        <time>2016-02-21T16:02:50.1Z</time>
      </trkpt>
      <trkpt lat="48.64871" lon="-2.42771">
        <ele>77</ele>
        <time>2016-02-21T16:02:52.1Z</time>
      </trkpt>
      <trkpt lat="48.64872" lon="-2.42767">
        <ele>77</ele>
        <time>2016-02-21T16:02:55.1Z</time>
      </trkpt>
      <trkpt lat="48.64872" lon="-2.42765">
        <ele>77</ele>
        <time>2016-02-21T16:02:57.1Z</time>
      </trkpt>
      <trkpt lat="48.64872" lon="-2.42761">
        <ele>77</ele>
        <time>2016-02-21T16:03:00.1Z</time>
      </trkpt>
      <trkpt lat="48.64873" lon="-2.42758">
        <ele>77</ele>
        <time>2016-02-21T16:03:02.1Z</time>
      </trkpt>
      <trkpt lat="48.64873" lon="-2.42755">
        <ele>77</ele>
        <time>2016-02-21T16:03:04.1Z</time>
      </trkpt>
      <trkpt lat="48.64873" lon="-2.42751">
        <ele>77</ele>
        <time>2016-02-21T16:03:06.1Z</time>
      </trkpt>
      <trkpt lat="48.64873" lon="-2.42748">
        <ele>77</ele>
        <time>2016-02-21T16:03:08.1Z</time>
      </trkpt>
      <trkpt lat="48.64873" lon="-2.42745">
        <ele>77</ele>
        <time>2016-02-21T16:03:11.1Z</time>
      </trkpt>
      <trkpt lat="48.64873" lon="-2.42742">
        <ele>78</ele>
        <time>2016-02-21T16:03:13.1Z</time>
      </trkpt>
      <trkpt lat="48.64875" lon="-2.4274">
        <ele>78</ele>
        <time>2016-02-21T16:03:16.1Z</time>
      </trkpt>
      <trkpt lat="48.64875" lon="-2.42736">
        <ele>78</ele>
        <time>2016-02-21T16:03:19.1Z</time>
      </trkpt>
      <trkpt lat="48.64876" lon="-2.42736">
        <ele>78</ele>
        <time>2016-02-21T16:03:21.1Z</time>
      </trkpt>
      <trkpt lat="48.64876" lon="-2.42736">
        <ele>78</ele>
        <time>2016-02-21T16:03:28.1Z</time>
      </trkpt>
      <trkpt lat="48.64876" lon="-2.42736">
        <ele>79</ele>
        <time>2016-02-21T16:03:30.1Z</time>
      </trkpt>
      <trkpt lat="48.64877" lon="-2.42733">
        <ele>79</ele>
        <time>2016-02-21T16:03:33.1Z</time>
      </trkpt>
      <trkpt lat="48.64876" lon="-2.4273">
        <ele>79</ele>
        <time>2016-02-21T16:03:35.1Z</time>
      </trkpt>
      <trkpt lat="48.64875" lon="-2.42727">
        <ele>79</ele>
        <time>2016-02-21T16:03:37.1Z</time>
      </trkpt>
      <trkpt lat="48.64874" lon="-2.42724">
        <ele>79</ele>
        <time>2016-02-21T16:03:40.1Z</time>
      </trkpt>
      <trkpt lat="48.64874" lon="-2.42721">
        <ele>79</ele>
        <time>2016-02-21T16:03:42.1Z</time>
      </trkpt>
      <trkpt lat="48.64873" lon="-2.42718">
        <ele>79</ele>
        <time>2016-02-21T16:03:45.1Z</time>
      </trkpt>
      <trkpt lat="48.64873" lon="-2.42715">
        <ele>80</ele>
        <time>2016-02-21T16:03:48.1Z</time>
      </trkpt>
      <trkpt lat="48.64873" lon="-2.42715">
        <ele>80</ele>
        <time>2016-02-21T16:03:50.1Z</time>
      </trkpt>
      <trkpt lat="48.64874" lon="-2.42715">
        <ele>80</ele>
        <time>2016-02-21T16:03:53.1Z</time>
      </trkpt>
      <trkpt lat="48.64873" lon="-2.42714">
        <ele>80</ele>
        <time>2016-02-21T16:03:57.1Z</time>
      </trkpt>
      <trkpt lat="48.64873" lon="-2.42714">
        <ele>81</ele>
        <time>2016-02-21T16:04:00.1Z</time>
      </trkpt>
      <trkpt lat="48.64873" lon="-2.42714">
        <ele>81</ele>
        <time>2016-02-21T16:04:02.1Z</time>
      </trkpt>
      <trkpt lat="48.64872" lon="-2.42714">
        <ele>81</ele>
        <time>2016-02-21T16:04:06.1Z</time>
      </trkpt>
      <trkpt lat="48.64872" lon="-2.42712">
        <ele>81</ele>
        <time>2016-02-21T16:04:08.1Z</time>
      </trkpt>
      <trkpt lat="48.6487" lon="-2.42711">
        <ele>80</ele>
        <time>2016-02-21T16:04:10.1Z</time>
      </trkpt>
      <trkpt lat="48.64869" lon="-2.42709">
        <ele>80</ele>
        <time>2016-02-21T16:04:12.1Z</time>
      </trkpt>
      <trkpt lat="48.64866" lon="-2.42705">
        <ele>80</ele>
        <time>2016-02-21T16:04:15.1Z</time>
      </trkpt>
      <trkpt lat="48.64864" lon="-2.42703">
        <ele>79</ele>
        <time>2016-02-21T16:04:17.1Z</time>
      </trkpt>
      <trkpt lat="48.64862" lon="-2.427">
        <ele>79</ele>
        <time>2016-02-21T16:04:19.1Z</time>
      </trkpt>
      <trkpt lat="48.64861" lon="-2.42695">
        <ele>78</ele>
        <time>2016-02-21T16:04:22.1Z</time>
      </trkpt>
      <trkpt lat="48.64858" lon="-2.42694">
        <ele>78</ele>
        <time>2016-02-21T16:04:24.1Z</time>
      </trkpt>
      <trkpt lat="48.64854" lon="-2.42694">
        <ele>78</ele>
        <time>2016-02-21T16:04:27.1Z</time>
      </trkpt>
      <trkpt lat="48.64852" lon="-2.42694">
        <ele>78</ele>
        <time>2016-02-21T16:04:29.1Z</time>
      </trkpt>
      <trkpt lat="48.64849" lon="-2.42693">
        <ele>78</ele>
        <time>2016-02-21T16:04:31.1Z</time>
      </trkpt>
      <trkpt lat="48.64846" lon="-2.42689">
        <ele>78</ele>
        <time>2016-02-21T16:04:34.1Z</time>
      </trkpt>
      <trkpt lat="48.64845" lon="-2.42687">
        <ele>78</ele>
        <time>2016-02-21T16:04:36.1Z</time>
      </trkpt>
      <trkpt lat="48.64843" lon="-2.42682">
        <ele>78</ele>
        <time>2016-02-21T16:04:39.1Z</time>
      </trkpt>
      <trkpt lat="48.64841" lon="-2.42679">
        <ele>78</ele>
        <time>2016-02-21T16:04:41.1Z</time>
      </trkpt>
      <trkpt lat="48.6484" lon="-2.42676">
        <ele>78</ele>
        <time>2016-02-21T16:04:43.1Z</time>
      </trkpt>
      <trkpt lat="48.64839" lon="-2.42673">
        <ele>78</ele>
        <time>2016-02-21T16:04:45.1Z</time>
      </trkpt>
      <trkpt lat="48.64838" lon="-2.4267">
        <ele>77</ele>
        <time>2016-02-21T16:04:47.1Z</time>
      </trkpt>
      <trkpt lat="48.64837" lon="-2.42667">
        <ele>77</ele>
        <time>2016-02-21T16:04:49.1Z</time>
      </trkpt>
      <trkpt lat="48.64836" lon="-2.42662">
        <ele>77</ele>
        <time>2016-02-21T16:04:52.1Z</time>
      </trkpt>
      <trkpt lat="48.64836" lon="-2.42659">
        <ele>77</ele>
        <time>2016-02-21T16:04:54.1Z</time>
      </trkpt>
      <trkpt lat="48.64834" lon="-2.42654">
        <ele>77</ele>
        <time>2016-02-21T16:04:57.1Z</time>
      </trkpt>
      <trkpt lat="48.64834" lon="-2.4265">
        <ele>78</ele>
        <time>2016-02-21T16:05:00.1Z</time>
      </trkpt>
      <trkpt lat="48.64834" lon="-2.42645">
        <ele>78</ele>
        <time>2016-02-21T16:05:03.1Z</time>
      </trkpt>
      <trkpt lat="48.64834" lon="-2.4264">
        <ele>77</ele>
        <time>2016-02-21T16:05:06.1Z</time>
      </trkpt>
      <trkpt lat="48.64835" lon="-2.42637">
        <ele>77</ele>
        <time>2016-02-21T16:05:08.1Z</time>
      </trkpt>
      <trkpt lat="48.64837" lon="-2.42633">
        <ele>77</ele>
        <time>2016-02-21T16:05:11.1Z</time>
      </trkpt>
      <trkpt lat="48.64837" lon="-2.42628">
        <ele>78</ele>
        <time>2016-02-21T16:05:14.1Z</time>
      </trkpt>
      <trkpt lat="48.64837" lon="-2.42624">
        <ele>78</ele>
        <time>2016-02-21T16:05:16.1Z</time>
      </trkpt>
      <trkpt lat="48.64836" lon="-2.4262">
        <ele>78</ele>
        <time>2016-02-21T16:05:18.1Z</time>
      </trkpt>
      <trkpt lat="48.64835" lon="-2.42615">
        <ele>78</ele>
        <time>2016-02-21T16:05:21.1Z</time>
      </trkpt>
      <trkpt lat="48.64834" lon="-2.42612">
        <ele>78</ele>
        <time>2016-02-21T16:05:23.1Z</time>
      </trkpt>
      <trkpt lat="48.64833" lon="-2.42609">
        <ele>78</ele>
        <time>2016-02-21T16:05:25.1Z</time>
      </trkpt>
      <trkpt lat="48.64832" lon="-2.42603">
        <ele>78</ele>
        <time>2016-02-21T16:05:28.1Z</time>
      </trkpt>
      <trkpt lat="48.64831" lon="-2.426">
        <ele>78</ele>
        <time>2016-02-21T16:05:30.1Z</time>
      </trkpt>
      <trkpt lat="48.6483" lon="-2.42597">
        <ele>78</ele>
        <time>2016-02-21T16:05:32.1Z</time>
      </trkpt>
      <trkpt lat="48.64829" lon="-2.42591">
        <ele>78</ele>
        <time>2016-02-21T16:05:35.1Z</time>
      </trkpt>
      <trkpt lat="48.64829" lon="-2.42587">
        <ele>78</ele>
        <time>2016-02-21T16:05:37.1Z</time>
      </trkpt>
      <trkpt lat="48.64829" lon="-2.42583">
        <ele>78</ele>
        <time>2016-02-21T16:05:40.1Z</time>
      </trkpt>
      <trkpt lat="48.64828" lon="-2.42577">
        <ele>78</ele>
        <time>2016-02-21T16:05:43.1Z</time>
      </trkpt>
      <trkpt lat="48.64827" lon="-2.42574">
        <ele>78</ele>
        <time>2016-02-21T16:05:45.1Z</time>
      </trkpt>
      <trkpt lat="48.64827" lon="-2.42568">
        <ele>78</ele>
        <time>2016-02-21T16:05:48.1Z</time>
      </trkpt>
      <trkpt lat="48.64826" lon="-2.42565">
        <ele>78</ele>
        <time>2016-02-21T16:05:50.1Z</time>
      </trkpt>
      <trkpt lat="48.64825" lon="-2.42562">
        <ele>78</ele>
        <time>2016-02-21T16:05:52.1Z</time>
      </trkpt>
      <trkpt lat="48.64826" lon="-2.42563">
        <ele>78</ele>
        <time>2016-02-21T16:05:55.1Z</time>
      </trkpt>
      <trkpt lat="48.64827" lon="-2.42563">
        <ele>79</ele>
        <time>2016-02-21T16:05:58.1Z</time>
      </trkpt>
      <trkpt lat="48.64826" lon="-2.42563">
        <ele>79</ele>
        <time>2016-02-21T16:06:01.1Z</time>
      </trkpt>
      <trkpt lat="48.64826" lon="-2.4256">
        <ele>79</ele>
        <time>2016-02-21T16:06:03.1Z</time>
      </trkpt>
      <trkpt lat="48.64826" lon="-2.42557">
        <ele>78</ele>
        <time>2016-02-21T16:06:05.1Z</time>
      </trkpt>
      <trkpt lat="48.64825" lon="-2.42553">
        <ele>78</ele>
        <time>2016-02-21T16:06:07.1Z</time>
      </trkpt>
      <trkpt lat="48.64824" lon="-2.42549">
        <ele>78</ele>
        <time>2016-02-21T16:06:09.1Z</time>
      </trkpt>
      <trkpt lat="48.64824" lon="-2.42545">
        <ele>78</ele>
        <time>2016-02-21T16:06:11.1Z</time>
      </trkpt>
      <trkpt lat="48.64823" lon="-2.4254">
        <ele>78</ele>
        <time>2016-02-21T16:06:14.1Z</time>
      </trkpt>
      <trkpt lat="48.64823" lon="-2.42535">
        <ele>78</ele>
        <time>2016-02-21T16:06:16.1Z</time>
      </trkpt>
      <trkpt lat="48.64822" lon="-2.4253">
        <ele>78</ele>
        <time>2016-02-21T16:06:19.1Z</time>
      </trkpt>
      <trkpt lat="48.64822" lon="-2.42529">
        <ele>79</ele>
        <time>2016-02-21T16:06:22.1Z</time>
      </trkpt>
      <trkpt lat="48.64822" lon="-2.42529">
        <ele>79</ele>
        <time>2016-02-21T16:06:25.1Z</time>
      </trkpt>
      <trkpt lat="48.64822" lon="-2.4253">
        <ele>79</ele>
        <time>2016-02-21T16:06:27.1Z</time>
      </trkpt>
      <trkpt lat="48.64821" lon="-2.42526">
        <ele>79</ele>
        <time>2016-02-21T16:06:30.1Z</time>
      </trkpt>
      <trkpt lat="48.6482" lon="-2.42523">
        <ele>79</ele>
        <time>2016-02-21T16:06:32.1Z</time>
      </trkpt>
      <trkpt lat="48.64819" lon="-2.4252">
        <ele>78</ele>
        <time>2016-02-21T16:06:34.1Z</time>
      </trkpt>
      <trkpt lat="48.64818" lon="-2.42514">
        <ele>78</ele>
        <time>2016-02-21T16:06:37.1Z</time>
      </trkpt>
      <trkpt lat="48.64818" lon="-2.42511">
        <ele>78</ele>
        <time>2016-02-21T16:06:39.1Z</time>
      </trkpt>
      <trkpt lat="48.64817" lon="-2.42507">
        <ele>78</ele>
        <time>2016-02-21T16:06:41.1Z</time>
      </trkpt>
      <trkpt lat="48.64816" lon="-2.42501">
        <ele>78</ele>
        <time>2016-02-21T16:06:44.1Z</time>
      </trkpt>
      <trkpt lat="48.64815" lon="-2.42498">
        <ele>78</ele>
        <time>2016-02-21T16:06:46.1Z</time>
      </trkpt>
      <trkpt lat="48.64814" lon="-2.42495">
        <ele>78</ele>
        <time>2016-02-21T16:06:48.1Z</time>
      </trkpt>
      <trkpt lat="48.64812" lon="-2.42489">
        <ele>78</ele>
        <time>2016-02-21T16:06:51.1Z</time>
      </trkpt>
      <trkpt lat="48.64811" lon="-2.42486">
        <ele>78</ele>
        <time>2016-02-21T16:06:53.1Z</time>
      </trkpt>
      <trkpt lat="48.64811" lon="-2.42483">
        <ele>78</ele>
        <time>2016-02-21T16:06:55.1Z</time>
      </trkpt>
      <trkpt lat="48.6481" lon="-2.42477">
        <ele>78</ele>
        <time>2016-02-21T16:06:58.1Z</time>
      </trkpt>
      <trkpt lat="48.64809" lon="-2.42473">
        <ele>78</ele>
        <time>2016-02-21T16:07:00.1Z</time>
      </trkpt>
      <trkpt lat="48.64808" lon="-2.4247">
        <ele>78</ele>
        <time>2016-02-21T16:07:02.1Z</time>
      </trkpt>
      <trkpt lat="48.64807" lon="-2.42466">
        <ele>78</ele>
        <time>2016-02-21T16:07:04.1Z</time>
      </trkpt>
      <trkpt lat="48.64806" lon="-2.4246">
        <ele>78</ele>
        <time>2016-02-21T16:07:07.1Z</time>
      </trkpt>
      <trkpt lat="48.64805" lon="-2.42457">
        <ele>78</ele>
        <time>2016-02-21T16:07:09.1Z</time>
      </trkpt>
      <trkpt lat="48.64804" lon="-2.42453">
        <ele>78</ele>
        <time>2016-02-21T16:07:11.1Z</time>
      </trkpt>
      <trkpt lat="48.64802" lon="-2.42449">
        <ele>78</ele>
        <time>2016-02-21T16:07:13.1Z</time>
      </trkpt>
      <trkpt lat="48.648" lon="-2.42446">
        <ele>78</ele>
        <time>2016-02-21T16:07:15.1Z</time>
      </trkpt>
      <trkpt lat="48.64799" lon="-2.42442">
        <ele>78</ele>
        <time>2016-02-21T16:07:17.1Z</time>
      </trkpt>
      <trkpt lat="48.64798" lon="-2.42439">
        <ele>78</ele>
        <time>2016-02-21T16:07:19.1Z</time>
      </trkpt>
      <trkpt lat="48.64798" lon="-2.42435">
        <ele>78</ele>
        <time>2016-02-21T16:07:22.1Z</time>
      </trkpt>
      <trkpt lat="48.64797" lon="-2.4243">
        <ele>78</ele>
        <time>2016-02-21T16:07:25.1Z</time>
      </trkpt>
      <trkpt lat="48.64796" lon="-2.42427">
        <ele>78</ele>
        <time>2016-02-21T16:07:27.1Z</time>
      </trkpt>
      <trkpt lat="48.64795" lon="-2.42422">
        <ele>77</ele>
        <time>2016-02-21T16:07:30.1Z</time>
      </trkpt>
      <trkpt lat="48.64794" lon="-2.42419">
        <ele>77</ele>
        <time>2016-02-21T16:07:32.1Z</time>
      </trkpt>
      <trkpt lat="48.64793" lon="-2.42416">
        <ele>77</ele>
        <time>2016-02-21T16:07:34.1Z</time>
      </trkpt>
      <trkpt lat="48.64791" lon="-2.42411">
        <ele>77</ele>
        <time>2016-02-21T16:07:37.1Z</time>
      </trkpt>
      <trkpt lat="48.64791" lon="-2.4241">
        <ele>77</ele>
        <time>2016-02-21T16:07:39.1Z</time>
      </trkpt>
      <trkpt lat="48.64791" lon="-2.4241">
        <ele>78</ele>
        <time>2016-02-21T16:07:42.1Z</time>
      </trkpt>
      <trkpt lat="48.6479" lon="-2.42406">
        <ele>78</ele>
        <time>2016-02-21T16:07:45.1Z</time>
      </trkpt>
      <trkpt lat="48.64789" lon="-2.42403">
        <ele>78</ele>
        <time>2016-02-21T16:07:47.1Z</time>
      </trkpt>
      <trkpt lat="48.64787" lon="-2.42397">
        <ele>77</ele>
        <time>2016-02-21T16:07:50.1Z</time>
      </trkpt>
      <trkpt lat="48.64787" lon="-2.42395">
        <ele>77</ele>
        <time>2016-02-21T16:07:52.1Z</time>
      </trkpt>
      <trkpt lat="48.64787" lon="-2.42395">
        <ele>77</ele>
        <time>2016-02-21T16:07:55.1Z</time>
      </trkpt>
      <trkpt lat="48.64787" lon="-2.42395">
        <ele>78</ele>
        <time>2016-02-21T16:07:59.1Z</time>
      </trkpt>
      <trkpt lat="48.64786" lon="-2.42393">
        <ele>77</ele>
        <time>2016-02-21T16:08:01.1Z</time>
      </trkpt>
      <trkpt lat="48.64785" lon="-2.42388">
        <ele>77</ele>
        <time>2016-02-21T16:08:04.1Z</time>
      </trkpt>
      <trkpt lat="48.64785" lon="-2.42383">
        <ele>77</ele>
        <time>2016-02-21T16:08:07.1Z</time>
      </trkpt>
      <trkpt lat="48.64784" lon="-2.42378">
        <ele>77</ele>
        <time>2016-02-21T16:08:10.1Z</time>
      </trkpt>
      <trkpt lat="48.64783" lon="-2.42373">
        <ele>77</ele>
        <time>2016-02-21T16:08:12.1Z</time>
      </trkpt>
      <trkpt lat="48.64783" lon="-2.42368">
        <ele>77</ele>
        <time>2016-02-21T16:08:15.1Z</time>
      </trkpt>
      <trkpt lat="48.64782" lon="-2.42363">
        <ele>77</ele>
        <time>2016-02-21T16:08:18.1Z</time>
      </trkpt>
      <trkpt lat="48.64781" lon="-2.42359">
        <ele>77</ele>
        <time>2016-02-21T16:08:20.1Z</time>
      </trkpt>
      <trkpt lat="48.64781" lon="-2.42354">
        <ele>77</ele>
        <time>2016-02-21T16:08:23.1Z</time>
      </trkpt>
      <trkpt lat="48.6478" lon="-2.4235">
        <ele>77</ele>
        <time>2016-02-21T16:08:25.1Z</time>
      </trkpt>
      <trkpt lat="48.6478" lon="-2.42344">
        <ele>77</ele>
        <time>2016-02-21T16:08:28.1Z</time>
      </trkpt>
      <trkpt lat="48.64779" lon="-2.4234">
        <ele>77</ele>
        <time>2016-02-21T16:08:30.1Z</time>
      </trkpt>
      <trkpt lat="48.64778" lon="-2.42334">
        <ele>77</ele>
        <time>2016-02-21T16:08:33.1Z</time>
      </trkpt>
      <trkpt lat="48.64777" lon="-2.42331">
        <ele>77</ele>
        <time>2016-02-21T16:08:35.1Z</time>
      </trkpt>
      <trkpt lat="48.64776" lon="-2.42327">
        <ele>77</ele>
        <time>2016-02-21T16:08:37.1Z</time>
      </trkpt>
      <trkpt lat="48.64775" lon="-2.42322">
        <ele>77</ele>
        <time>2016-02-21T16:08:40.1Z</time>
      </trkpt>
      <trkpt lat="48.64774" lon="-2.42319">
        <ele>77</ele>
        <time>2016-02-21T16:08:42.1Z</time>
      </trkpt>
      <trkpt lat="48.64773" lon="-2.42315">
        <ele>77</ele>
        <time>2016-02-21T16:08:44.1Z</time>
      </trkpt>
      <trkpt lat="48.64772" lon="-2.4231">
        <ele>77</ele>
        <time>2016-02-21T16:08:47.1Z</time>
      </trkpt>
      <trkpt lat="48.6477" lon="-2.42305">
        <ele>77</ele>
        <time>2016-02-21T16:08:50.1Z</time>
      </trkpt>
      <trkpt lat="48.64769" lon="-2.42301">
        <ele>77</ele>
        <time>2016-02-21T16:08:52.1Z</time>
      </trkpt>
      <trkpt lat="48.64767" lon="-2.42298">
        <ele>77</ele>
        <time>2016-02-21T16:08:54.1Z</time>
      </trkpt>
      <trkpt lat="48.64766" lon="-2.42292">
        <ele>77</ele>
        <time>2016-02-21T16:08:57.1Z</time>
      </trkpt>
      <trkpt lat="48.64765" lon="-2.42288">
        <ele>76</ele>
        <time>2016-02-21T16:08:59.1Z</time>
      </trkpt>
      <trkpt lat="48.64764" lon="-2.42283">
        <ele>76</ele>
        <time>2016-02-21T16:09:02.1Z</time>
      </trkpt>
      <trkpt lat="48.64763" lon="-2.4228">
        <ele>76</ele>
        <time>2016-02-21T16:09:04.1Z</time>
      </trkpt>
      <trkpt lat="48.64762" lon="-2.42276">
        <ele>76</ele>
        <time>2016-02-21T16:09:06.1Z</time>
      </trkpt>
      <trkpt lat="48.64762" lon="-2.42271">
        <ele>76</ele>
        <time>2016-02-21T16:09:09.1Z</time>
      </trkpt>
      <trkpt lat="48.64761" lon="-2.42266">
        <ele>76</ele>
        <time>2016-02-21T16:09:12.1Z</time>
      </trkpt>
      <trkpt lat="48.64761" lon="-2.42263">
        <ele>77</ele>
        <time>2016-02-21T16:09:14.1Z</time>
      </trkpt>
      <trkpt lat="48.6476" lon="-2.42257">
        <ele>77</ele>
        <time>2016-02-21T16:09:17.1Z</time>
      </trkpt>
      <trkpt lat="48.64759" lon="-2.42253">
        <ele>77</ele>
        <time>2016-02-21T16:09:19.1Z</time>
      </trkpt>
      <trkpt lat="48.64758" lon="-2.42249">
        <ele>77</ele>
        <time>2016-02-21T16:09:22.1Z</time>
      </trkpt>
      <trkpt lat="48.64757" lon="-2.42246">
        <ele>77</ele>
        <time>2016-02-21T16:09:24.1Z</time>
      </trkpt>
      <trkpt lat="48.64756" lon="-2.42241">
        <ele>77</ele>
        <time>2016-02-21T16:09:27.1Z</time>
      </trkpt>
      <trkpt lat="48.64754" lon="-2.42239">
        <ele>77</ele>
        <time>2016-02-21T16:09:29.1Z</time>
      </trkpt>
      <trkpt lat="48.64753" lon="-2.42236">
        <ele>77</ele>
        <time>2016-02-21T16:09:31.1Z</time>
      </trkpt>
      <trkpt lat="48.6475" lon="-2.42232">
        <ele>77</ele>
        <time>2016-02-21T16:09:34.1Z</time>
      </trkpt>
      <trkpt lat="48.64748" lon="-2.42229">
        <ele>77</ele>
        <time>2016-02-21T16:09:36.1Z</time>
      </trkpt>
      <trkpt lat="48.64746" lon="-2.42225">
        <ele>77</ele>
        <time>2016-02-21T16:09:39.1Z</time>
      </trkpt>
      <trkpt lat="48.64744" lon="-2.42222">
        <ele>77</ele>
        <time>2016-02-21T16:09:41.1Z</time>
      </trkpt>
      <trkpt lat="48.64743" lon="-2.4222">
        <ele>77</ele>
        <time>2016-02-21T16:09:43.1Z</time>
      </trkpt>
      <trkpt lat="48.6474" lon="-2.42217">
        <ele>77</ele>
        <time>2016-02-21T16:09:46.1Z</time>
      </trkpt>
      <trkpt lat="48.64739" lon="-2.42216">
        <ele>77</ele>
        <time>2016-02-21T16:09:48.1Z</time>
      </trkpt>
      <trkpt lat="48.64738" lon="-2.42214">
        <ele>77</ele>
        <time>2016-02-21T16:09:50.1Z</time>
      </trkpt>
      <trkpt lat="48.64737" lon="-2.42211">
        <ele>77</ele>
        <time>2016-02-21T16:09:53.1Z</time>
      </trkpt>
      <trkpt lat="48.64737" lon="-2.42207">
        <ele>77</ele>
        <time>2016-02-21T16:09:56.1Z</time>
      </trkpt>
      <trkpt lat="48.64736" lon="-2.42204">
        <ele>78</ele>
        <time>2016-02-21T16:09:58.1Z</time>
      </trkpt>
      <trkpt lat="48.64735" lon="-2.422">
        <ele>78</ele>
        <time>2016-02-21T16:10:01.1Z</time>
      </trkpt>
      <trkpt lat="48.64734" lon="-2.42198">
        <ele>78</ele>
        <time>2016-02-21T16:10:04.1Z</time>
      </trkpt>
      <trkpt lat="48.64733" lon="-2.42196">
        <ele>78</ele>
        <time>2016-02-21T16:10:06.1Z</time>
      </trkpt>
      <trkpt lat="48.64731" lon="-2.42194">
        <ele>79</ele>
        <time>2016-02-21T16:10:08.1Z</time>
      </trkpt>
      <trkpt lat="48.64729" lon="-2.42192">
        <ele>79</ele>
        <time>2016-02-21T16:10:10.1Z</time>
      </trkpt>
      <trkpt lat="48.64728" lon="-2.4219">
        <ele>79</ele>
        <time>2016-02-21T16:10:12.1Z</time>
      </trkpt>
      <trkpt lat="48.64726" lon="-2.42187">
        <ele>80</ele>
        <time>2016-02-21T16:10:15.1Z</time>
      </trkpt>
      <trkpt lat="48.64725" lon="-2.42184">
        <ele>79</ele>
        <time>2016-02-21T16:10:17.1Z</time>
      </trkpt>
      <trkpt lat="48.64723" lon="-2.42182">
        <ele>79</ele>
        <time>2016-02-21T16:10:19.1Z</time>
      </trkpt>
      <trkpt lat="48.64721" lon="-2.42179">
        <ele>79</ele>
        <time>2016-02-21T16:10:22.1Z</time>
      </trkpt>
      <trkpt lat="48.6472" lon="-2.42177">
        <ele>79</ele>
        <time>2016-02-21T16:10:24.1Z</time>
      </trkpt>
      <trkpt lat="48.64719" lon="-2.42174">
        <ele>79</ele>
        <time>2016-02-21T16:10:26.1Z</time>
      </trkpt>
      <trkpt lat="48.64717" lon="-2.42171">
        <ele>79</ele>
        <time>2016-02-21T16:10:29.1Z</time>
      </trkpt>
      <trkpt lat="48.64716" lon="-2.42168">
        <ele>79</ele>
        <time>2016-02-21T16:10:31.1Z</time>
      </trkpt>
      <trkpt lat="48.64714" lon="-2.42165">
        <ele>79</ele>
        <time>2016-02-21T16:10:33.1Z</time>
      </trkpt>
      <trkpt lat="48.64713" lon="-2.42163">
        <ele>79</ele>
        <time>2016-02-21T16:10:35.1Z</time>
      </trkpt>
      <trkpt lat="48.64712" lon="-2.42161">
        <ele>79</ele>
        <time>2016-02-21T16:10:37.1Z</time>
      </trkpt>
      <trkpt lat="48.64711" lon="-2.42159">
        <ele>79</ele>
        <time>2016-02-21T16:10:39.1Z</time>
      </trkpt>
      <trkpt lat="48.6471" lon="-2.42156">
        <ele>79</ele>
        <time>2016-02-21T16:10:41.1Z</time>
      </trkpt>
      <trkpt lat="48.64708" lon="-2.42153">
        <ele>79</ele>
        <time>2016-02-21T16:10:44.1Z</time>
      </trkpt>
      <trkpt lat="48.64707" lon="-2.4215">
        <ele>79</ele>
        <time>2016-02-21T16:10:47.1Z</time>
      </trkpt>
      <trkpt lat="48.64705" lon="-2.42148">
        <ele>79</ele>
        <time>2016-02-21T16:10:49.1Z</time>
      </trkpt>
      <trkpt lat="48.64703" lon="-2.42146">
        <ele>79</ele>
        <time>2016-02-21T16:10:51.1Z</time>
      </trkpt>
      <trkpt lat="48.64701" lon="-2.42144">
        <ele>79</ele>
        <time>2016-02-21T16:10:54.1Z</time>
      </trkpt>
      <trkpt lat="48.647" lon="-2.42143">
        <ele>79</ele>
        <time>2016-02-21T16:10:56.1Z</time>
      </trkpt>
      <trkpt lat="48.64697" lon="-2.42141">
        <ele>79</ele>
        <time>2016-02-21T16:10:59.1Z</time>
      </trkpt>
      <trkpt lat="48.64696" lon="-2.42139">
        <ele>79</ele>
        <time>2016-02-21T16:11:01.1Z</time>
      </trkpt>
      <trkpt lat="48.64693" lon="-2.42136">
        <ele>79</ele>
        <time>2016-02-21T16:11:04.1Z</time>
      </trkpt>
      <trkpt lat="48.64692" lon="-2.42135">
        <ele>78</ele>
        <time>2016-02-21T16:11:06.1Z</time>
      </trkpt>
      <trkpt lat="48.64691" lon="-2.42133">
        <ele>79</ele>
        <time>2016-02-21T16:11:08.1Z</time>
      </trkpt>
      <trkpt lat="48.64689" lon="-2.4213">
        <ele>79</ele>
        <time>2016-02-21T16:11:11.1Z</time>
      </trkpt>
      <trkpt lat="48.64688" lon="-2.42127">
        <ele>79</ele>
        <time>2016-02-21T16:11:14.1Z</time>
      </trkpt>
      <trkpt lat="48.64687" lon="-2.42125">
        <ele>80</ele>
        <time>2016-02-21T16:11:17.1Z</time>
      </trkpt>
      <trkpt lat="48.64685" lon="-2.42122">
        <ele>80</ele>
        <time>2016-02-21T16:11:19.1Z</time>
      </trkpt>
      <trkpt lat="48.64683" lon="-2.42121">
        <ele>79</ele>
        <time>2016-02-21T16:11:21.1Z</time>
      </trkpt>
      <trkpt lat="48.6468" lon="-2.42119">
        <ele>79</ele>
        <time>2016-02-21T16:11:24.1Z</time>
      </trkpt>
      <trkpt lat="48.6468" lon="-2.42119">
        <ele>79</ele>
        <time>2016-02-21T16:11:26.1Z</time>
      </trkpt>
      <trkpt lat="48.6468" lon="-2.4212">
        <ele>79</ele>
        <time>2016-02-21T16:11:29.1Z</time>
      </trkpt>
      <trkpt lat="48.6468" lon="-2.4212">
        <ele>79</ele>
        <time>2016-02-21T16:11:32.1Z</time>
      </trkpt>
      <trkpt lat="48.64681" lon="-2.42121">
        <ele>79</ele>
        <time>2016-02-21T16:11:34.1Z</time>
      </trkpt>
      <trkpt lat="48.64681" lon="-2.42121">
        <ele>79</ele>
        <time>2016-02-21T16:11:36.1Z</time>
      </trkpt>
      <trkpt lat="48.6468" lon="-2.42121">
        <ele>79</ele>
        <time>2016-02-21T16:11:39.1Z</time>
      </trkpt>
      <trkpt lat="48.64679" lon="-2.42122">
        <ele>79</ele>
        <time>2016-02-21T16:11:41.1Z</time>
      </trkpt>
      <trkpt lat="48.64678" lon="-2.42122">
        <ele>79</ele>
        <time>2016-02-21T16:11:44.1Z</time>
      </trkpt>
      <trkpt lat="48.6468" lon="-2.42121">
        <ele>79</ele>
        <time>2016-02-21T16:11:46.1Z</time>
      </trkpt>
      <trkpt lat="48.64681" lon="-2.4212">
        <ele>79</ele>
        <time>2016-02-21T16:11:48.1Z</time>
      </trkpt>
    </trkseg>
  </trk>
</gpx>